PWSweather.com
Personal Weather Stations
Station Observations
JAMES
NorthumberlandGB

NorthumberlandGB

Lat: 55.5507124, Lon: -2.0172811

Elevation: 362

Station Type:

High Low Average
Temperature 69.8°F21.0°C 52.3°F11.3°C 64.1°F17.8°C
Dew Point 52.5°F11.4°C 43.8°F6.6°C 49.1°F9.5°C
Winds 6.0 mph 9.7 kmh Calm Calm 1.0 mph S1.6 kmh S
Wind Gusts 9.8 mph15.8 kmh 0.7 mph1.1 kmh 5.0 mph8.0 kmh
Humidity 79% 46% 59%
Pressure 31.11 in1053.5 mb 31.05 in1051.5 mb -
Precipitation 0.00 in0.0 mm - -
Hour Temp Dew Point Humidity Winds Wind Gusts Pressure Precip Precip Rate Daily Precip Total
09:18 AM 55.0°F12.8°C 48.6°F9.2°C 79% Calm Calm 0.7 mph1.1 kmh 31.08 in1052.5 mb 0.00 in0.0 mm 0.00 in/hr0.0 mm/hr 0.00 in0.0 mm
09:19 AM 56.5°F13.6°C 49.0°F9.4°C 76% Calm Calm 0.7 mph1.1 kmh 31.07 in1052.2 mb 0.00 in0.0 mm 0.00 in/hr0.0 mm/hr 0.00 in0.0 mm
09:20 AM 56.7°F13.7°C 49.5°F9.7°C 77% Calm Calm 0.7 mph1.1 kmh 31.08 in1052.5 mb 0.00 in0.0 mm 0.00 in/hr0.0 mm/hr 0.00 in0.0 mm
09:21 AM 56.7°F13.7°C 50.2°F10.1°C 79% Calm Calm 1.6 mph2.6 kmh 31.08 in1052.5 mb 0.00 in0.0 mm 0.00 in/hr0.0 mm/hr 0.00 in0.0 mm
09:22 AM 56.7°F13.7°C 49.9°F9.9°C 78% Calm Calm 1.6 mph2.6 kmh 31.08 in1052.5 mb 0.00 in0.0 mm 0.00 in/hr0.0 mm/hr 0.00 in0.0 mm
09:23 AM 57.2°F14.0°C 50.4°F10.2°C 78% Calm Calm 1.6 mph2.6 kmh 31.08 in1052.5 mb 0.00 in0.0 mm 0.00 in/hr0.0 mm/hr 0.00 in0.0 mm
09:24 AM 57.6°F14.2°C 50.4°F10.2°C 77% Calm Calm 1.6 mph2.6 kmh 31.07 in1052.2 mb 0.00 in0.0 mm 0.00 in/hr0.0 mm/hr 0.00 in0.0 mm
09:25 AM 57.7°F14.3°C 50.6°F10.3°C 77% Calm Calm 1.6 mph2.6 kmh 31.07 in1052.2 mb 0.00 in0.0 mm 0.00 in/hr0.0 mm/hr 0.00 in0.0 mm
09:26 AM 58.1°F14.5°C 49.9°F9.9°C 74% 0.7 mph WSW1.1 kmh WSW 1.6 mph2.6 kmh 31.08 in1052.5 mb 0.00 in0.0 mm 0.00 in/hr0.0 mm/hr 0.00 in0.0 mm
09:27 AM 58.5°F14.7°C 49.8°F9.9°C 73% Calm Calm 1.6 mph2.6 kmh 31.08 in1052.5 mb 0.00 in0.0 mm 0.00 in/hr0.0 mm/hr 0.00 in0.0 mm
09:28 AM 58.6°F14.8°C 50.0°F10.0°C 73% Calm Calm 1.6 mph2.6 kmh 31.08 in1052.5 mb 0.00 in0.0 mm 0.00 in/hr0.0 mm/hr 0.00 in0.0 mm
09:29 AM 58.8°F14.9°C 49.8°F9.9°C 72% Calm Calm 1.6 mph2.6 kmh 31.08 in1052.5 mb 0.00 in0.0 mm 0.00 in/hr0.0 mm/hr 0.00 in0.0 mm
09:30 AM 59.2°F15.1°C 50.2°F10.1°C 72% Calm Calm 1.6 mph2.6 kmh 31.08 in1052.5 mb 0.00 in0.0 mm 0.00 in/hr0.0 mm/hr 0.00 in0.0 mm
09:31 AM 59.2°F15.1°C 50.2°F10.1°C 72% 0.7 mph SW1.1 kmh SW 2.2 mph3.5 kmh 31.09 in1052.8 mb 0.00 in0.0 mm 0.00 in/hr0.0 mm/hr 0.00 in0.0 mm
09:32 AM 59.4°F15.2°C 50.0°F10.0°C 71% Calm Calm 2.2 mph3.5 kmh 31.08 in1052.5 mb 0.00 in0.0 mm 0.00 in/hr0.0 mm/hr 0.00 in0.0 mm
09:33 AM 59.4°F15.2°C 50.0°F10.0°C 71% Calm Calm 2.2 mph3.5 kmh 31.08 in1052.5 mb 0.00 in0.0 mm 0.00 in/hr0.0 mm/hr 0.00 in0.0 mm
09:34 AM 59.4°F15.2°C 49.2°F9.6°C 69% Calm Calm 2.2 mph3.5 kmh 31.08 in1052.5 mb 0.00 in0.0 mm 0.00 in/hr0.0 mm/hr 0.00 in0.0 mm
09:35 AM 59.5°F15.3°C 49.4°F9.7°C 69% Calm Calm 2.2 mph3.5 kmh 31.08 in1052.5 mb 0.00 in0.0 mm 0.00 in/hr0.0 mm/hr 0.00 in0.0 mm
09:36 AM 59.5°F15.3°C 49.4°F9.7°C 69% Calm Calm 2.2 mph3.5 kmh 31.08 in1052.5 mb 0.00 in0.0 mm 0.00 in/hr0.0 mm/hr 0.00 in0.0 mm
09:37 AM 59.7°F15.4°C 49.5°F9.7°C 69% Calm Calm 2.2 mph3.5 kmh 31.08 in1052.5 mb 0.00 in0.0 mm 0.00 in/hr0.0 mm/hr 0.00 in0.0 mm
09:38 AM 59.9°F15.5°C 48.9°F9.4°C 67% Calm Calm 2.2 mph3.5 kmh 31.09 in1052.8 mb 0.00 in0.0 mm 0.00 in/hr0.0 mm/hr 0.00 in0.0 mm
09:39 AM 60.1°F15.6°C 49.5°F9.7°C 68% Calm Calm 2.2 mph3.5 kmh 31.08 in1052.5 mb 0.00 in0.0 mm 0.00 in/hr0.0 mm/hr 0.00 in0.0 mm
09:40 AM 60.1°F15.6°C 49.5°F9.7°C 68% Calm Calm 2.2 mph3.5 kmh 31.09 in1052.8 mb 0.00 in0.0 mm 0.00 in/hr0.0 mm/hr 0.00 in0.0 mm
09:41 AM 60.3°F15.7°C 49.3°F9.6°C 67% Calm Calm 2.2 mph3.5 kmh 31.09 in1052.8 mb 0.00 in0.0 mm 0.00 in/hr0.0 mm/hr 0.00 in0.0 mm
09:42 AM 60.1°F15.6°C 48.3°F9.1°C 65% Calm Calm 3.1 mph5.0 kmh 31.09 in1052.8 mb 0.00 in0.0 mm 0.00 in/hr0.0 mm/hr 0.00 in0.0 mm
09:43 AM 60.1°F15.6°C 48.3°F9.1°C 65% Calm Calm 3.1 mph5.0 kmh 31.09 in1052.8 mb 0.00 in0.0 mm 0.00 in/hr0.0 mm/hr 0.00 in0.0 mm
09:44 AM 60.1°F15.6°C 48.3°F9.1°C 65% 0.7 mph SW1.1 kmh SW 3.1 mph5.0 kmh 31.09 in1052.8 mb 0.00 in0.0 mm 0.00 in/hr0.0 mm/hr 0.00 in0.0 mm
09:45 AM 60.1°F15.6°C 48.3°F9.1°C 65% Calm Calm 3.1 mph5.0 kmh 31.08 in1052.5 mb 0.00 in0.0 mm 0.00 in/hr0.0 mm/hr 0.00 in0.0 mm
09:46 AM 60.1°F15.6°C 48.7°F9.3°C 66% Calm Calm 3.1 mph5.0 kmh 31.08 in1052.5 mb 0.00 in0.0 mm 0.00 in/hr0.0 mm/hr 0.00 in0.0 mm
09:47 AM 59.9°F15.5°C 48.5°F9.2°C 66% Calm Calm 3.1 mph5.0 kmh 31.08 in1052.5 mb 0.00 in0.0 mm 0.00 in/hr0.0 mm/hr 0.00 in0.0 mm
09:48 AM 59.9°F15.5°C 48.5°F9.2°C 66% 0.7 mph SSW1.1 kmh SSW 3.1 mph5.0 kmh 31.08 in1052.5 mb 0.00 in0.0 mm 0.00 in/hr0.0 mm/hr 0.00 in0.0 mm
09:49 AM 59.9°F15.5°C 48.5°F9.2°C 66% Calm Calm 3.1 mph5.0 kmh 31.09 in1052.8 mb 0.00 in0.0 mm 0.00 in/hr0.0 mm/hr 0.00 in0.0 mm
09:50 AM 59.9°F15.5°C 48.5°F9.2°C 66% Calm Calm 3.1 mph5.0 kmh 31.09 in1052.8 mb 0.00 in0.0 mm 0.00 in/hr0.0 mm/hr 0.00 in0.0 mm
09:51 AM 59.9°F15.5°C 48.5°F9.2°C 66% Calm Calm 3.1 mph5.0 kmh 31.08 in1052.5 mb 0.00 in0.0 mm 0.00 in/hr0.0 mm/hr 0.00 in0.0 mm
09:52 AM 60.1°F15.6°C 48.7°F9.3°C 66% Calm Calm 1.6 mph2.6 kmh 31.08 in1052.5 mb 0.00 in0.0 mm 0.00 in/hr0.0 mm/hr 0.00 in0.0 mm
09:53 AM 60.3°F15.7°C 49.3°F9.6°C 67% Calm Calm 1.6 mph2.6 kmh 31.09 in1052.8 mb 0.00 in0.0 mm 0.00 in/hr0.0 mm/hr 0.00 in0.0 mm
09:54 AM 60.4°F15.8°C 49.4°F9.7°C 67% Calm Calm 1.6 mph2.6 kmh 31.08 in1052.5 mb 0.00 in0.0 mm 0.00 in/hr0.0 mm/hr 0.00 in0.0 mm
09:55 AM 60.6°F15.9°C 49.6°F9.8°C 67% Calm Calm 1.6 mph2.6 kmh 31.08 in1052.5 mb 0.00 in0.0 mm 0.00 in/hr0.0 mm/hr 0.00 in0.0 mm
09:56 AM 60.8°F16.0°C 50.2°F10.1°C 68% Calm Calm 1.6 mph2.6 kmh 31.09 in1052.8 mb 0.00 in0.0 mm 0.00 in/hr0.0 mm/hr 0.00 in0.0 mm
09:57 AM 61.2°F16.2°C 50.5°F10.3°C 68% Calm Calm 1.6 mph2.6 kmh 31.09 in1052.8 mb 0.00 in0.0 mm 0.00 in/hr0.0 mm/hr 0.00 in0.0 mm
09:58 AM 61.5°F16.4°C 50.1°F10.1°C 66% Calm Calm 1.6 mph2.6 kmh 31.09 in1052.8 mb 0.00 in0.0 mm 0.00 in/hr0.0 mm/hr 0.00 in0.0 mm
09:59 AM 61.7°F16.5°C 49.4°F9.7°C 64% Calm Calm 1.6 mph2.6 kmh 31.08 in1052.5 mb 0.00 in0.0 mm 0.00 in/hr0.0 mm/hr 0.00 in0.0 mm
10:00 AM 61.9°F16.6°C 50.0°F10.0°C 65% Calm Calm 1.6 mph2.6 kmh 31.08 in1052.5 mb 0.00 in0.0 mm 0.00 in/hr0.0 mm/hr 0.00 in0.0 mm
10:01 AM 62.1°F16.7°C 50.2°F10.1°C 65% Calm Calm 1.6 mph2.6 kmh 31.08 in1052.5 mb 0.00 in0.0 mm 0.00 in/hr0.0 mm/hr 0.00 in0.0 mm
10:02 AM 62.2°F16.8°C 49.9°F9.9°C 64% 0.7 mph NW1.1 kmh NW 2.2 mph3.5 kmh 31.08 in1052.5 mb 0.00 in0.0 mm 0.00 in/hr0.0 mm/hr 0.00 in0.0 mm
10:03 AM 62.4°F16.9°C 49.7°F9.8°C 63% Calm Calm 2.2 mph3.5 kmh 31.09 in1052.8 mb 0.00 in0.0 mm 0.00 in/hr0.0 mm/hr 0.00 in0.0 mm
10:04 AM 62.4°F16.9°C 48.4°F9.1°C 60% 0.7 mph NW1.1 kmh NW 2.2 mph3.5 kmh 31.08 in1052.5 mb 0.00 in0.0 mm 0.00 in/hr0.0 mm/hr 0.00 in0.0 mm
10:05 AM 62.4°F16.9°C 47.9°F8.8°C 59% 0.7 mph NW1.1 kmh NW 2.2 mph3.5 kmh 31.08 in1052.5 mb 0.00 in0.0 mm 0.00 in/hr0.0 mm/hr 0.00 in0.0 mm
10:06 AM 62.2°F16.8°C 49.1°F9.5°C 62% Calm Calm 2.2 mph3.5 kmh 31.08 in1052.5 mb 0.00 in0.0 mm 0.00 in/hr0.0 mm/hr 0.00 in0.0 mm
10:07 AM 62.2°F16.8°C 49.5°F9.7°C 63% Calm Calm 2.2 mph3.5 kmh 31.08 in1052.5 mb 0.00 in0.0 mm 0.00 in/hr0.0 mm/hr 0.00 in0.0 mm
10:08 AM 62.2°F16.8°C 49.5°F9.7°C 63% Calm Calm 2.2 mph3.5 kmh 31.08 in1052.5 mb 0.00 in0.0 mm 0.00 in/hr0.0 mm/hr 0.00 in0.0 mm
10:09 AM 62.2°F16.8°C 49.5°F9.7°C 63% 0.7 mph NNW1.1 kmh NNW 2.2 mph3.5 kmh 31.08 in1052.5 mb 0.00 in0.0 mm 0.00 in/hr0.0 mm/hr 0.00 in0.0 mm
10:10 AM 62.4°F16.9°C 49.7°F9.8°C 63% Calm Calm 2.2 mph3.5 kmh 31.09 in1052.8 mb 0.00 in0.0 mm 0.00 in/hr0.0 mm/hr 0.00 in0.0 mm
10:11 AM 62.6°F17.0°C 49.8°F9.9°C 63% Calm Calm 2.2 mph3.5 kmh 31.08 in1052.5 mb 0.00 in0.0 mm 0.00 in/hr0.0 mm/hr 0.00 in0.0 mm
10:12 AM 63.0°F17.2°C 50.2°F10.1°C 63% Calm Calm 2.2 mph3.5 kmh 31.08 in1052.5 mb 0.00 in0.0 mm 0.00 in/hr0.0 mm/hr 0.00 in0.0 mm
10:13 AM 63.1°F17.3°C 49.9°F9.9°C 62% Calm Calm 2.2 mph3.5 kmh 31.09 in1052.8 mb 0.00 in0.0 mm 0.00 in/hr0.0 mm/hr 0.00 in0.0 mm
10:14 AM 63.7°F17.6°C 50.0°F10.0°C 61% Calm Calm 2.2 mph3.5 kmh 31.08 in1052.5 mb 0.00 in0.0 mm 0.00 in/hr0.0 mm/hr 0.00 in0.0 mm
10:15 AM 64.0°F17.8°C 50.8°F10.4°C 62% Calm Calm 2.2 mph3.5 kmh 31.09 in1052.8 mb 0.00 in0.0 mm 0.00 in/hr0.0 mm/hr 0.00 in0.0 mm
10:16 AM 64.0°F17.8°C 50.8°F10.4°C 62% Calm Calm 1.6 mph2.6 kmh 31.09 in1052.8 mb 0.00 in0.0 mm 0.00 in/hr0.0 mm/hr 0.00 in0.0 mm
10:17 AM 64.4°F18.0°C 51.1°F10.6°C 62% Calm Calm 1.6 mph2.6 kmh 31.09 in1052.8 mb 0.00 in0.0 mm 0.00 in/hr0.0 mm/hr 0.00 in0.0 mm
10:18 AM 64.6°F18.1°C 51.3°F10.7°C 62% Calm Calm 1.6 mph2.6 kmh 31.08 in1052.5 mb 0.00 in0.0 mm 0.00 in/hr0.0 mm/hr 0.00 in0.0 mm
10:19 AM 64.8°F18.2°C 51.5°F10.8°C 62% Calm Calm 0.7 mph1.1 kmh 31.09 in1052.8 mb 0.00 in0.0 mm 0.00 in/hr0.0 mm/hr 0.00 in0.0 mm
10:20 AM 64.9°F18.3°C 50.7°F10.4°C 60% Calm Calm 1.6 mph2.6 kmh 31.09 in1052.8 mb 0.00 in0.0 mm 0.00 in/hr0.0 mm/hr 0.00 in0.0 mm
10:21 AM 64.9°F18.3°C 50.7°F10.4°C 60% Calm Calm 1.6 mph2.6 kmh 31.09 in1052.8 mb 0.00 in0.0 mm 0.00 in/hr0.0 mm/hr 0.00 in0.0 mm
10:22 AM 65.1°F18.4°C 50.9°F10.5°C 60% Calm Calm 1.6 mph2.6 kmh 31.09 in1052.8 mb 0.00 in0.0 mm 0.00 in/hr0.0 mm/hr 0.00 in0.0 mm
10:23 AM 65.1°F18.4°C 50.9°F10.5°C 60% Calm Calm 1.6 mph2.6 kmh 31.08 in1052.5 mb 0.00 in0.0 mm 0.00 in/hr0.0 mm/hr 0.00 in0.0 mm
10:24 AM 65.1°F18.4°C 51.4°F10.8°C 61% Calm Calm 1.6 mph2.6 kmh 31.09 in1052.8 mb 0.00 in0.0 mm 0.00 in/hr0.0 mm/hr 0.00 in0.0 mm
10:25 AM 65.3°F18.5°C 51.5°F10.8°C 61% Calm Calm 1.6 mph2.6 kmh 31.09 in1052.8 mb 0.00 in0.0 mm 0.00 in/hr0.0 mm/hr 0.00 in0.0 mm
10:26 AM 65.7°F18.7°C 52.3°F11.3°C 62% Calm Calm 1.6 mph2.6 kmh 31.09 in1052.8 mb 0.00 in0.0 mm 0.00 in/hr0.0 mm/hr 0.00 in0.0 mm
10:27 AM 65.7°F18.7°C 52.3°F11.3°C 62% Calm Calm 1.6 mph2.6 kmh 31.09 in1052.8 mb 0.00 in0.0 mm 0.00 in/hr0.0 mm/hr 0.00 in0.0 mm
10:28 AM 65.8°F18.8°C 52.0°F11.1°C 61% Calm Calm 1.6 mph2.6 kmh 31.09 in1052.8 mb 0.00 in0.0 mm 0.00 in/hr0.0 mm/hr 0.00 in0.0 mm
10:29 AM 66.0°F18.9°C 52.2°F11.2°C 61% Calm Calm 1.6 mph2.6 kmh 31.08 in1052.5 mb 0.00 in0.0 mm 0.00 in/hr0.0 mm/hr 0.00 in0.0 mm
10:30 AM 66.4°F19.1°C 51.6°F10.9°C 59% Calm Calm 2.2 mph3.5 kmh 31.08 in1052.5 mb 0.00 in0.0 mm 0.00 in/hr0.0 mm/hr 0.00 in0.0 mm
10:31 AM 66.6°F19.2°C 50.9°F10.5°C 57% 0.7 mph N1.1 kmh N 2.2 mph3.5 kmh 31.09 in1052.8 mb 0.00 in0.0 mm 0.00 in/hr0.0 mm/hr 0.00 in0.0 mm
10:32 AM 66.4°F19.1°C 50.7°F10.4°C 57% Calm Calm 2.2 mph3.5 kmh 31.08 in1052.5 mb 0.00 in0.0 mm 0.00 in/hr0.0 mm/hr 0.00 in0.0 mm
10:33 AM 66.4°F19.1°C 50.7°F10.4°C 57% Calm Calm 2.2 mph3.5 kmh 31.08 in1052.5 mb 0.00 in0.0 mm 0.00 in/hr0.0 mm/hr 0.00 in0.0 mm
10:34 AM 66.2°F19.0°C 51.5°F10.8°C 59% Calm Calm 2.2 mph3.5 kmh 31.08 in1052.5 mb 0.00 in0.0 mm 0.00 in/hr0.0 mm/hr 0.00 in0.0 mm
10:35 AM 66.2°F19.0°C 50.1°F10.1°C 56% 0.7 mph N1.1 kmh N 2.2 mph3.5 kmh 31.09 in1052.8 mb 0.00 in0.0 mm 0.00 in/hr0.0 mm/hr 0.00 in0.0 mm
10:36 AM 66.2°F19.0°C 50.1°F10.1°C 56% Calm Calm 2.2 mph3.5 kmh 31.09 in1052.8 mb 0.00 in0.0 mm 0.00 in/hr0.0 mm/hr 0.00 in0.0 mm
10:37 AM 66.0°F18.9°C 49.9°F9.9°C 56% 0.7 mph N1.1 kmh N 2.2 mph3.5 kmh 31.09 in1052.8 mb 0.00 in0.0 mm 0.00 in/hr0.0 mm/hr 0.00 in0.0 mm
10:38 AM 65.7°F18.7°C 50.0°F10.0°C 57% Calm Calm 2.2 mph3.5 kmh 31.09 in1052.8 mb 0.00 in0.0 mm 0.00 in/hr0.0 mm/hr 0.00 in0.0 mm
10:39 AM 65.7°F18.7°C 50.5°F10.3°C 58% Calm Calm 2.2 mph3.5 kmh 31.09 in1052.8 mb 0.00 in0.0 mm 0.00 in/hr0.0 mm/hr 0.00 in0.0 mm
10:40 AM 65.7°F18.7°C 51.0°F10.6°C 59% Calm Calm 2.2 mph3.5 kmh 31.09 in1052.8 mb 0.00 in0.0 mm 0.00 in/hr0.0 mm/hr 0.00 in0.0 mm
10:41 AM 65.7°F18.7°C 51.0°F10.6°C 59% Calm Calm 2.2 mph3.5 kmh 31.08 in1052.5 mb 0.00 in0.0 mm 0.00 in/hr0.0 mm/hr 0.00 in0.0 mm
10:42 AM 65.7°F18.7°C 51.0°F10.6°C 59% Calm Calm 2.2 mph3.5 kmh 31.08 in1052.5 mb 0.00 in0.0 mm 0.00 in/hr0.0 mm/hr 0.00 in0.0 mm
10:43 AM 65.7°F18.7°C 51.0°F10.6°C 59% Calm Calm 2.2 mph3.5 kmh 31.08 in1052.5 mb 0.00 in0.0 mm 0.00 in/hr0.0 mm/hr 0.00 in0.0 mm
10:44 AM 65.7°F18.7°C 49.6°F9.8°C 56% 0.7 mph NNE1.1 kmh NNE 2.2 mph3.5 kmh 31.08 in1052.5 mb 0.00 in0.0 mm 0.00 in/hr0.0 mm/hr 0.00 in0.0 mm
10:45 AM 65.7°F18.7°C 50.0°F10.0°C 57% 0.7 mph NNE1.1 kmh NNE 2.2 mph3.5 kmh 31.08 in1052.5 mb 0.00 in0.0 mm 0.00 in/hr0.0 mm/hr 0.00 in0.0 mm
10:46 AM 65.5°F18.6°C 49.9°F9.9°C 57% 0.7 mph N1.1 kmh N 2.2 mph3.5 kmh 31.08 in1052.5 mb 0.00 in0.0 mm 0.00 in/hr0.0 mm/hr 0.00 in0.0 mm
10:47 AM 65.5°F18.6°C 49.9°F9.9°C 57% Calm Calm 3.1 mph5.0 kmh 31.09 in1052.8 mb 0.00 in0.0 mm 0.00 in/hr0.0 mm/hr 0.00 in0.0 mm
10:48 AM 65.3°F18.5°C 49.7°F9.8°C 57% 0.7 mph NNE1.1 kmh NNE 3.1 mph5.0 kmh 31.08 in1052.5 mb 0.00 in0.0 mm 0.00 in/hr0.0 mm/hr 0.00 in0.0 mm
10:49 AM 65.3°F18.5°C 50.2°F10.1°C 58% Calm Calm 3.1 mph5.0 kmh 31.08 in1052.5 mb 0.00 in0.0 mm 0.00 in/hr0.0 mm/hr 0.00 in0.0 mm
10:50 AM 64.9°F18.3°C 49.8°F9.9°C 58% Calm Calm 3.1 mph5.0 kmh 31.08 in1052.5 mb 0.00 in0.0 mm 0.00 in/hr0.0 mm/hr 0.00 in0.0 mm
10:51 AM 64.9°F18.3°C 49.8°F9.9°C 58% 1.6 mph NNE2.6 kmh NNE 3.1 mph5.0 kmh 31.08 in1052.5 mb 0.00 in0.0 mm 0.00 in/hr0.0 mm/hr 0.00 in0.0 mm
10:52 AM 64.9°F18.3°C 49.8°F9.9°C 58% 0.7 mph NNE1.1 kmh NNE 3.1 mph5.0 kmh 31.08 in1052.5 mb 0.00 in0.0 mm 0.00 in/hr0.0 mm/hr 0.00 in0.0 mm
10:53 AM 64.8°F18.2°C 50.1°F10.1°C 59% 1.6 mph NNE2.6 kmh NNE 3.1 mph5.0 kmh 31.08 in1052.5 mb 0.00 in0.0 mm 0.00 in/hr0.0 mm/hr 0.00 in0.0 mm
10:54 AM 64.8°F18.2°C 50.6°F10.3°C 60% 0.7 mph NNE1.1 kmh NNE 3.1 mph5.0 kmh 31.07 in1052.2 mb 0.00 in0.0 mm 0.00 in/hr0.0 mm/hr 0.00 in0.0 mm
10:55 AM 64.8°F18.2°C 50.1°F10.1°C 59% 1.6 mph NNE2.6 kmh NNE 3.1 mph5.0 kmh 31.08 in1052.5 mb 0.00 in0.0 mm 0.00 in/hr0.0 mm/hr 0.00 in0.0 mm
10:56 AM 64.8°F18.2°C 50.6°F10.3°C 60% 0.7 mph NNE1.1 kmh NNE 3.1 mph5.0 kmh 31.08 in1052.5 mb 0.00 in0.0 mm 0.00 in/hr0.0 mm/hr 0.00 in0.0 mm
10:57 AM 64.8°F18.2°C 50.6°F10.3°C 60% 0.7 mph N1.1 kmh N 3.1 mph5.0 kmh 31.07 in1052.2 mb 0.00 in0.0 mm 0.00 in/hr0.0 mm/hr 0.00 in0.0 mm
10:58 AM 64.6°F18.1°C 50.4°F10.2°C 60% Calm Calm 3.1 mph5.0 kmh 31.08 in1052.5 mb 0.00 in0.0 mm 0.00 in/hr0.0 mm/hr 0.00 in0.0 mm
10:59 AM 64.6°F18.1°C 50.4°F10.2°C 60% 0.7 mph N1.1 kmh N 3.1 mph5.0 kmh 31.08 in1052.5 mb 0.00 in0.0 mm 0.00 in/hr0.0 mm/hr 0.00 in0.0 mm
11:00 AM 64.6°F18.1°C 50.4°F10.2°C 60% 0.7 mph N1.1 kmh N 3.1 mph5.0 kmh 31.08 in1052.5 mb 0.00 in0.0 mm 0.00 in/hr0.0 mm/hr 0.00 in0.0 mm
11:01 AM 64.6°F18.1°C 50.4°F10.2°C 60% 1.6 mph N2.6 kmh N 3.1 mph5.0 kmh 31.08 in1052.5 mb 0.00 in0.0 mm 0.00 in/hr0.0 mm/hr 0.00 in0.0 mm
11:02 AM 64.4°F18.0°C 49.8°F9.9°C 59% 1.6 mph N2.6 kmh N 3.1 mph5.0 kmh 31.07 in1052.2 mb 0.00 in0.0 mm 0.00 in/hr0.0 mm/hr 0.00 in0.0 mm
11:03 AM 64.4°F18.0°C 50.2°F10.1°C 60% 0.7 mph N1.1 kmh N 3.1 mph5.0 kmh 31.07 in1052.2 mb 0.00 in0.0 mm 0.00 in/hr0.0 mm/hr 0.00 in0.0 mm
11:04 AM 64.4°F18.0°C 50.2°F10.1°C 60% 0.7 mph N1.1 kmh N 3.1 mph5.0 kmh 31.07 in1052.2 mb 0.00 in0.0 mm 0.00 in/hr0.0 mm/hr 0.00 in0.0 mm
11:05 AM 64.0°F17.8°C 50.3°F10.2°C 61% Calm Calm 3.1 mph5.0 kmh 31.08 in1052.5 mb 0.00 in0.0 mm 0.00 in/hr0.0 mm/hr 0.00 in0.0 mm
11:06 AM 64.8°F18.2°C 51.0°F10.6°C 61% Calm Calm 3.1 mph5.0 kmh 31.07 in1052.2 mb 0.00 in0.0 mm 0.00 in/hr0.0 mm/hr 0.00 in0.0 mm
11:07 AM 64.9°F18.3°C 50.7°F10.4°C 60% 0.7 mph N1.1 kmh N 3.1 mph5.0 kmh 31.07 in1052.2 mb 0.00 in0.0 mm 0.00 in/hr0.0 mm/hr 0.00 in0.0 mm
11:08 AM 65.1°F18.4°C 50.5°F10.3°C 59% 0.7 mph N1.1 kmh N 3.1 mph5.0 kmh 31.07 in1052.2 mb 0.00 in0.0 mm 0.00 in/hr0.0 mm/hr 0.00 in0.0 mm
11:09 AM 65.3°F18.5°C 51.1°F10.6°C 60% Calm Calm 3.1 mph5.0 kmh 31.07 in1052.2 mb 0.00 in0.0 mm 0.00 in/hr0.0 mm/hr 0.00 in0.0 mm
11:10 AM 65.7°F18.7°C 50.5°F10.3°C 58% 0.7 mph N1.1 kmh N 3.1 mph5.0 kmh 31.07 in1052.2 mb 0.00 in0.0 mm 0.00 in/hr0.0 mm/hr 0.00 in0.0 mm
11:11 AM 65.7°F18.7°C 50.5°F10.3°C 58% 0.7 mph N1.1 kmh N 3.1 mph5.0 kmh 31.07 in1052.2 mb 0.00 in0.0 mm 0.00 in/hr0.0 mm/hr 0.00 in0.0 mm
11:12 AM 65.8°F18.8°C 50.7°F10.4°C 58% Calm Calm 3.1 mph5.0 kmh 31.07 in1052.2 mb 0.00 in0.0 mm 0.00 in/hr0.0 mm/hr 0.00 in0.0 mm
11:13 AM 65.8°F18.8°C 50.7°F10.4°C 58% 0.7 mph N1.1 kmh N 3.1 mph5.0 kmh 31.07 in1052.2 mb 0.00 in0.0 mm 0.00 in/hr0.0 mm/hr 0.00 in0.0 mm
11:14 AM 66.0°F18.9°C 51.3°F10.7°C 59% 0.7 mph NNE1.1 kmh NNE 3.1 mph5.0 kmh 31.07 in1052.2 mb 0.00 in0.0 mm 0.00 in/hr0.0 mm/hr 0.00 in0.0 mm
11:15 AM 66.2°F19.0°C 51.5°F10.8°C 59% Calm Calm 3.1 mph5.0 kmh 31.07 in1052.2 mb 0.00 in0.0 mm 0.00 in/hr0.0 mm/hr 0.00 in0.0 mm
11:16 AM 66.4°F19.1°C 51.2°F10.7°C 58% 0.7 mph NE1.1 kmh NE 3.1 mph5.0 kmh 31.08 in1052.5 mb 0.00 in0.0 mm 0.00 in/hr0.0 mm/hr 0.00 in0.0 mm
11:17 AM 66.4°F19.1°C 50.7°F10.4°C 57% 1.6 mph NNE2.6 kmh NNE 3.1 mph5.0 kmh 31.08 in1052.5 mb 0.00 in0.0 mm 0.00 in/hr0.0 mm/hr 0.00 in0.0 mm
11:18 AM 66.6°F19.2°C 51.3°F10.7°C 58% Calm Calm 3.1 mph5.0 kmh 31.07 in1052.2 mb 0.00 in0.0 mm 0.00 in/hr0.0 mm/hr 0.00 in0.0 mm
11:19 AM 66.6°F19.2°C 51.8°F11.0°C 59% Calm Calm 3.1 mph5.0 kmh 31.07 in1052.2 mb 0.00 in0.0 mm 0.00 in/hr0.0 mm/hr 0.00 in0.0 mm
11:20 AM 66.7°F19.3°C 51.5°F10.8°C 58% 0.7 mph N1.1 kmh N 3.1 mph5.0 kmh 31.07 in1052.2 mb 0.00 in0.0 mm 0.00 in/hr0.0 mm/hr 0.00 in0.0 mm
11:21 AM 66.9°F19.4°C 51.2°F10.7°C 57% 1.6 mph N2.6 kmh N 3.8 mph6.1 kmh 31.07 in1052.2 mb 0.00 in0.0 mm 0.00 in/hr0.0 mm/hr 0.00 in0.0 mm
11:22 AM 66.9°F19.4°C 51.2°F10.7°C 57% 0.7 mph N1.1 kmh N 3.8 mph6.1 kmh 31.08 in1052.5 mb 0.00 in0.0 mm 0.00 in/hr0.0 mm/hr 0.00 in0.0 mm
11:23 AM 66.7°F19.3°C 51.0°F10.6°C 57% 0.7 mph N1.1 kmh N 3.8 mph6.1 kmh 31.07 in1052.2 mb 0.00 in0.0 mm 0.00 in/hr0.0 mm/hr 0.00 in0.0 mm
11:24 AM 66.7°F19.3°C 51.5°F10.8°C 58% 0.7 mph N1.1 kmh N 3.8 mph6.1 kmh 31.07 in1052.2 mb 0.00 in0.0 mm 0.00 in/hr0.0 mm/hr 0.00 in0.0 mm
11:25 AM 66.7°F19.3°C 51.0°F10.6°C 57% 0.7 mph N1.1 kmh N 3.8 mph6.1 kmh 31.07 in1052.2 mb 0.00 in0.0 mm 0.00 in/hr0.0 mm/hr 0.00 in0.0 mm
11:26 AM 66.7°F19.3°C 51.0°F10.6°C 57% 0.7 mph N1.1 kmh N 3.8 mph6.1 kmh 31.07 in1052.2 mb 0.00 in0.0 mm 0.00 in/hr0.0 mm/hr 0.00 in0.0 mm
11:27 AM 66.9°F19.4°C 51.7°F10.9°C 58% Calm Calm 3.8 mph6.1 kmh 31.07 in1052.2 mb 0.00 in0.0 mm 0.00 in/hr0.0 mm/hr 0.00 in0.0 mm
11:28 AM 66.9°F19.4°C 51.7°F10.9°C 58% Calm Calm 3.8 mph6.1 kmh 31.07 in1052.2 mb 0.00 in0.0 mm 0.00 in/hr0.0 mm/hr 0.00 in0.0 mm
11:29 AM 67.1°F19.5°C 51.4°F10.8°C 57% 0.7 mph N1.1 kmh N 3.8 mph6.1 kmh 31.08 in1052.5 mb 0.00 in0.0 mm 0.00 in/hr0.0 mm/hr 0.00 in0.0 mm
11:30 AM 67.3°F19.6°C 51.5°F10.8°C 57% Calm Calm 3.8 mph6.1 kmh 31.07 in1052.2 mb 0.00 in0.0 mm 0.00 in/hr0.0 mm/hr 0.00 in0.0 mm
11:31 AM 67.5°F19.7°C 51.7°F10.9°C 57% Calm Calm 3.8 mph6.1 kmh 31.07 in1052.2 mb 0.00 in0.0 mm 0.00 in/hr0.0 mm/hr 0.00 in0.0 mm
11:32 AM 67.6°F19.8°C 52.4°F11.3°C 58% Calm Calm 3.1 mph5.0 kmh 31.07 in1052.2 mb 0.00 in0.0 mm 0.00 in/hr0.0 mm/hr 0.00 in0.0 mm
11:33 AM 67.8°F19.9°C 52.5°F11.4°C 58% Calm Calm 3.1 mph5.0 kmh 31.07 in1052.2 mb 0.00 in0.0 mm 0.00 in/hr0.0 mm/hr 0.00 in0.0 mm
11:34 AM 68.2°F20.1°C 52.4°F11.3°C 57% 0.7 mph N1.1 kmh N 3.1 mph5.0 kmh 31.07 in1052.2 mb 0.00 in0.0 mm 0.00 in/hr0.0 mm/hr 0.00 in0.0 mm
11:35 AM 68.4°F20.2°C 52.1°F11.2°C 56% 0.7 mph N1.1 kmh N 3.1 mph5.0 kmh 31.07 in1052.2 mb 0.00 in0.0 mm 0.00 in/hr0.0 mm/hr 0.00 in0.0 mm
11:36 AM 68.4°F20.2°C 52.1°F11.2°C 56% Calm Calm 3.1 mph5.0 kmh 31.07 in1052.2 mb 0.00 in0.0 mm 0.00 in/hr0.0 mm/hr 0.00 in0.0 mm
11:37 AM 68.5°F20.3°C 51.8°F11.0°C 55% 0.7 mph NW1.1 kmh NW 3.1 mph5.0 kmh 31.07 in1052.2 mb 0.00 in0.0 mm 0.00 in/hr0.0 mm/hr 0.00 in0.0 mm
11:38 AM 68.9°F20.5°C 52.1°F11.2°C 55% Calm Calm 3.1 mph5.0 kmh 31.07 in1052.2 mb 0.00 in0.0 mm 0.00 in/hr0.0 mm/hr 0.00 in0.0 mm
11:39 AM 68.9°F20.5°C 51.1°F10.6°C 53% 2.2 mph NW3.5 kmh NW 3.8 mph6.1 kmh 31.07 in1052.2 mb 0.00 in0.0 mm 0.00 in/hr0.0 mm/hr 0.00 in0.0 mm
11:40 AM 68.9°F20.5°C 51.1°F10.6°C 53% 1.6 mph NNW2.6 kmh NNW 3.8 mph6.1 kmh 31.07 in1052.2 mb 0.00 in0.0 mm 0.00 in/hr0.0 mm/hr 0.00 in0.0 mm
11:41 AM 68.7°F20.4°C 50.9°F10.5°C 53% 1.6 mph NNW2.6 kmh NNW 3.8 mph6.1 kmh 31.07 in1052.2 mb 0.00 in0.0 mm 0.00 in/hr0.0 mm/hr 0.00 in0.0 mm
11:42 AM 68.5°F20.3°C 50.8°F10.4°C 53% 2.2 mph N3.5 kmh N 4.5 mph7.2 kmh 31.07 in1052.2 mb 0.00 in0.0 mm 0.00 in/hr0.0 mm/hr 0.00 in0.0 mm
11:43 AM 68.2°F20.1°C 50.9°F10.5°C 54% Calm Calm 4.5 mph7.2 kmh 31.07 in1052.2 mb 0.00 in0.0 mm 0.00 in/hr0.0 mm/hr 0.00 in0.0 mm
11:44 AM 68.2°F20.1°C 51.4°F10.8°C 55% Calm Calm 4.5 mph7.2 kmh 31.07 in1052.2 mb 0.00 in0.0 mm 0.00 in/hr0.0 mm/hr 0.00 in0.0 mm
11:45 AM 68.4°F20.2°C 51.6°F10.9°C 55% Calm Calm 4.5 mph7.2 kmh 31.06 in1051.8 mb 0.00 in0.0 mm 0.00 in/hr0.0 mm/hr 0.00 in0.0 mm
11:46 AM 68.4°F20.2°C 51.1°F10.6°C 54% 0.7 mph N1.1 kmh N 4.5 mph7.2 kmh 31.07 in1052.2 mb 0.00 in0.0 mm 0.00 in/hr0.0 mm/hr 0.00 in0.0 mm
11:47 AM 68.5°F20.3°C 51.3°F10.7°C 54% 0.7 mph N1.1 kmh N 4.5 mph7.2 kmh 31.07 in1052.2 mb 0.00 in0.0 mm 0.00 in/hr0.0 mm/hr 0.00 in0.0 mm
11:48 AM 68.5°F20.3°C 50.8°F10.4°C 53% 2.2 mph N3.5 kmh N 4.5 mph7.2 kmh 31.07 in1052.2 mb 0.00 in0.0 mm 0.00 in/hr0.0 mm/hr 0.00 in0.0 mm
11:49 AM 68.5°F20.3°C 50.8°F10.4°C 53% 1.6 mph N2.6 kmh N 4.5 mph7.2 kmh 31.07 in1052.2 mb 0.00 in0.0 mm 0.00 in/hr0.0 mm/hr 0.00 in0.0 mm
11:50 AM 68.4°F20.2°C 51.1°F10.6°C 54% Calm Calm 4.5 mph7.2 kmh 31.07 in1052.2 mb 0.00 in0.0 mm 0.00 in/hr0.0 mm/hr 0.00 in0.0 mm
11:51 AM 68.4°F20.2°C 50.1°F10.1°C 52% 2.2 mph N3.5 kmh N 5.4 mph8.7 kmh 31.07 in1052.2 mb 0.00 in0.0 mm 0.00 in/hr0.0 mm/hr 0.00 in0.0 mm
11:52 AM 68.2°F20.1°C 50.4°F10.2°C 53% 1.6 mph NNW2.6 kmh NNW 5.4 mph8.7 kmh 31.07 in1052.2 mb 0.00 in0.0 mm 0.00 in/hr0.0 mm/hr 0.00 in0.0 mm
11:53 AM 68.2°F20.1°C 50.4°F10.2°C 53% 1.6 mph NNW2.6 kmh NNW 5.4 mph8.7 kmh 31.07 in1052.2 mb 0.00 in0.0 mm 0.00 in/hr0.0 mm/hr 0.00 in0.0 mm
11:54 AM 68.2°F20.1°C 50.4°F10.2°C 53% 1.6 mph NNW2.6 kmh NNW 5.4 mph8.7 kmh 31.07 in1052.2 mb 0.00 in0.0 mm 0.00 in/hr0.0 mm/hr 0.00 in0.0 mm
11:55 AM 68.0°F20.0°C 50.3°F10.2°C 53% 1.6 mph NNW2.6 kmh NNW 5.4 mph8.7 kmh 31.07 in1052.2 mb 0.00 in0.0 mm 0.00 in/hr0.0 mm/hr 0.00 in0.0 mm
11:56 AM 68.0°F20.0°C 49.7°F9.8°C 52% 2.2 mph NW3.5 kmh NW 5.4 mph8.7 kmh 31.07 in1052.2 mb 0.00 in0.0 mm 0.00 in/hr0.0 mm/hr 0.00 in0.0 mm
11:57 AM 67.8°F19.9°C 49.6°F9.8°C 52% 1.6 mph NW2.6 kmh NW 5.4 mph8.7 kmh 31.07 in1052.2 mb 0.00 in0.0 mm 0.00 in/hr0.0 mm/hr 0.00 in0.0 mm
11:58 AM 67.8°F19.9°C 50.1°F10.1°C 53% 0.7 mph NW1.1 kmh NW 5.4 mph8.7 kmh 31.07 in1052.2 mb 0.00 in0.0 mm 0.00 in/hr0.0 mm/hr 0.00 in0.0 mm
11:59 AM 67.8°F19.9°C 50.1°F10.1°C 53% 1.6 mph NW2.6 kmh NW 5.4 mph8.7 kmh 31.07 in1052.2 mb 0.00 in0.0 mm 0.00 in/hr0.0 mm/hr 0.00 in0.0 mm
12:00 PM 67.8°F19.9°C 50.6°F10.3°C 54% Calm Calm 5.4 mph8.7 kmh 31.07 in1052.2 mb 0.00 in0.0 mm 0.00 in/hr0.0 mm/hr 0.00 in0.0 mm
12:01 PM 67.8°F19.9°C 50.6°F10.3°C 54% Calm Calm 5.4 mph8.7 kmh 31.07 in1052.2 mb 0.00 in0.0 mm 0.00 in/hr0.0 mm/hr 0.00 in0.0 mm
12:02 PM 68.0°F20.0°C 51.3°F10.7°C 55% Calm Calm 4.5 mph7.2 kmh 31.07 in1052.2 mb 0.00 in0.0 mm 0.00 in/hr0.0 mm/hr 0.00 in0.0 mm
12:03 PM 68.2°F20.1°C 50.4°F10.2°C 53% 1.6 mph NW2.6 kmh NW 4.5 mph7.2 kmh 31.07 in1052.2 mb 0.00 in0.0 mm 0.00 in/hr0.0 mm/hr 0.00 in0.0 mm
12:04 PM 68.4°F20.2°C 50.1°F10.1°C 52% 2.2 mph NNW3.5 kmh NNW 5.4 mph8.7 kmh 31.07 in1052.2 mb 0.00 in0.0 mm 0.00 in/hr0.0 mm/hr 0.00 in0.0 mm
12:05 PM 68.2°F20.1°C 49.9°F9.9°C 52% 3.1 mph N5.0 kmh N 6.0 mph9.7 kmh 31.07 in1052.2 mb 0.00 in0.0 mm 0.00 in/hr0.0 mm/hr 0.00 in0.0 mm
12:06 PM 68.0°F20.0°C 49.7°F9.8°C 52% 2.2 mph N3.5 kmh N 6.0 mph9.7 kmh 31.08 in1052.5 mb 0.00 in0.0 mm 0.00 in/hr0.0 mm/hr 0.00 in0.0 mm
12:07 PM 68.0°F20.0°C 50.3°F10.2°C 53% Calm Calm 6.0 mph9.7 kmh 31.07 in1052.2 mb 0.00 in0.0 mm 0.00 in/hr0.0 mm/hr 0.00 in0.0 mm
12:08 PM 68.0°F20.0°C 50.8°F10.4°C 54% Calm Calm 6.0 mph9.7 kmh 31.07 in1052.2 mb 0.00 in0.0 mm 0.00 in/hr0.0 mm/hr 0.00 in0.0 mm
12:09 PM 68.4°F20.2°C 51.1°F10.6°C 54% 0.7 mph NNE1.1 kmh NNE 6.0 mph9.7 kmh 31.07 in1052.2 mb 0.00 in0.0 mm 0.00 in/hr0.0 mm/hr 0.00 in0.0 mm
12:10 PM 68.4°F20.2°C 51.1°F10.6°C 54% 1.6 mph NNE2.6 kmh NNE 6.0 mph9.7 kmh 31.07 in1052.2 mb 0.00 in0.0 mm 0.00 in/hr0.0 mm/hr 0.00 in0.0 mm
12:11 PM 68.5°F20.3°C 51.3°F10.7°C 54% 0.7 mph NNE1.1 kmh NNE 6.0 mph9.7 kmh 31.07 in1052.2 mb 0.00 in0.0 mm 0.00 in/hr0.0 mm/hr 0.00 in0.0 mm
12:12 PM 68.5°F20.3°C 51.3°F10.7°C 54% 1.6 mph NNE2.6 kmh NNE 6.0 mph9.7 kmh 31.07 in1052.2 mb 0.00 in0.0 mm 0.00 in/hr0.0 mm/hr 0.00 in0.0 mm
12:13 PM 68.4°F20.2°C 51.1°F10.6°C 54% 3.1 mph NNE5.0 kmh NNE 6.0 mph9.7 kmh 31.07 in1052.2 mb 0.00 in0.0 mm 0.00 in/hr0.0 mm/hr 0.00 in0.0 mm
12:14 PM 68.4°F20.2°C 51.6°F10.9°C 55% 2.2 mph N3.5 kmh N 6.0 mph9.7 kmh 31.07 in1052.2 mb 0.00 in0.0 mm 0.00 in/hr0.0 mm/hr 0.00 in0.0 mm
12:15 PM 68.4°F20.2°C 52.1°F11.2°C 56% 0.7 mph N1.1 kmh N 6.0 mph9.7 kmh 31.07 in1052.2 mb 0.00 in0.0 mm 0.00 in/hr0.0 mm/hr 0.00 in0.0 mm
12:16 PM 68.4°F20.2°C 52.1°F11.2°C 56% Calm Calm 5.4 mph8.7 kmh 31.07 in1052.2 mb 0.00 in0.0 mm 0.00 in/hr0.0 mm/hr 0.00 in0.0 mm
12:17 PM 68.4°F20.2°C 51.6°F10.9°C 55% 0.7 mph N1.1 kmh N 5.4 mph8.7 kmh 31.07 in1052.2 mb 0.00 in0.0 mm 0.00 in/hr0.0 mm/hr 0.00 in0.0 mm
12:18 PM 68.5°F20.3°C 52.2°F11.2°C 56% 1.6 mph N2.6 kmh N 5.4 mph8.7 kmh 31.07 in1052.2 mb 0.00 in0.0 mm 0.00 in/hr0.0 mm/hr 0.00 in0.0 mm
12:19 PM 68.7°F20.4°C 51.4°F10.8°C 54% 2.2 mph N3.5 kmh N 5.4 mph8.7 kmh 31.07 in1052.2 mb 0.00 in0.0 mm 0.00 in/hr0.0 mm/hr 0.00 in0.0 mm
12:20 PM 68.7°F20.4°C 51.4°F10.8°C 54% 1.6 mph N2.6 kmh N 5.4 mph8.7 kmh 31.07 in1052.2 mb 0.00 in0.0 mm 0.00 in/hr0.0 mm/hr 0.00 in0.0 mm
12:21 PM 68.7°F20.4°C 51.4°F10.8°C 54% 1.6 mph N2.6 kmh N 5.4 mph8.7 kmh 31.07 in1052.2 mb 0.00 in0.0 mm 0.00 in/hr0.0 mm/hr 0.00 in0.0 mm
12:22 PM 68.7°F20.4°C 51.4°F10.8°C 54% 1.6 mph N2.6 kmh N 5.4 mph8.7 kmh 31.07 in1052.2 mb 0.00 in0.0 mm 0.00 in/hr0.0 mm/hr 0.00 in0.0 mm
12:23 PM 68.5°F20.3°C 51.3°F10.7°C 54% 0.7 mph N1.1 kmh N 5.4 mph8.7 kmh 31.06 in1051.8 mb 0.00 in0.0 mm 0.00 in/hr0.0 mm/hr 0.00 in0.0 mm
12:24 PM 68.7°F20.4°C 51.4°F10.8°C 54% 0.7 mph NNE1.1 kmh NNE 4.5 mph7.2 kmh 31.06 in1051.8 mb 0.00 in0.0 mm 0.00 in/hr0.0 mm/hr 0.00 in0.0 mm
12:25 PM 68.7°F20.4°C 51.4°F10.8°C 54% Calm Calm 3.8 mph6.1 kmh 31.07 in1052.2 mb 0.00 in0.0 mm 0.00 in/hr0.0 mm/hr 0.00 in0.0 mm
12:26 PM 68.9°F20.5°C 51.6°F10.9°C 54% Calm Calm 3.8 mph6.1 kmh 31.06 in1051.8 mb 0.00 in0.0 mm 0.00 in/hr0.0 mm/hr 0.00 in0.0 mm
12:27 PM 69.1°F20.6°C 50.7°F10.4°C 52% 1.6 mph N2.6 kmh N 3.8 mph6.1 kmh 31.07 in1052.2 mb 0.00 in0.0 mm 0.00 in/hr0.0 mm/hr 0.00 in0.0 mm
12:28 PM 69.3°F20.7°C 50.9°F10.5°C 52% 0.7 mph N1.1 kmh N 3.8 mph6.1 kmh 31.07 in1052.2 mb 0.00 in0.0 mm 0.00 in/hr0.0 mm/hr 0.00 in0.0 mm
12:29 PM 69.4°F20.8°C 51.1°F10.6°C 52% 0.7 mph N1.1 kmh N 3.8 mph6.1 kmh 31.06 in1051.8 mb 0.00 in0.0 mm 0.00 in/hr0.0 mm/hr 0.00 in0.0 mm
12:30 PM 69.4°F20.8°C 51.1°F10.6°C 52% 0.7 mph N1.1 kmh N 3.8 mph6.1 kmh 31.06 in1051.8 mb 0.00 in0.0 mm 0.00 in/hr0.0 mm/hr 0.00 in0.0 mm
12:31 PM 69.4°F20.8°C 49.5°F9.7°C 49% 3.1 mph N5.0 kmh N 5.4 mph8.7 kmh 31.06 in1051.8 mb 0.00 in0.0 mm 0.00 in/hr0.0 mm/hr 0.00 in0.0 mm
12:32 PM 69.4°F20.8°C 50.0°F10.0°C 50% 1.6 mph N2.6 kmh N 5.4 mph8.7 kmh 31.06 in1051.8 mb 0.00 in0.0 mm 0.00 in/hr0.0 mm/hr 0.00 in0.0 mm
12:33 PM 69.4°F20.8°C 50.0°F10.0°C 50% 2.2 mph N3.5 kmh N 5.4 mph8.7 kmh 31.06 in1051.8 mb 0.00 in0.0 mm 0.00 in/hr0.0 mm/hr 0.00 in0.0 mm
12:34 PM 69.4°F20.8°C 50.5°F10.3°C 51% 1.6 mph N2.6 kmh N 5.4 mph8.7 kmh 31.06 in1051.8 mb 0.00 in0.0 mm 0.00 in/hr0.0 mm/hr 0.00 in0.0 mm
12:35 PM 69.3°F20.7°C 50.9°F10.5°C 52% Calm Calm 5.4 mph8.7 kmh 31.06 in1051.8 mb 0.00 in0.0 mm 0.00 in/hr0.0 mm/hr 0.00 in0.0 mm
12:36 PM 69.3°F20.7°C 50.9°F10.5°C 52% Calm Calm 5.4 mph8.7 kmh 31.06 in1051.8 mb 0.00 in0.0 mm 0.00 in/hr0.0 mm/hr 0.00 in0.0 mm
12:37 PM 69.3°F20.7°C 50.9°F10.5°C 52% 0.7 mph N1.1 kmh N 5.4 mph8.7 kmh 31.06 in1051.8 mb 0.00 in0.0 mm 0.00 in/hr0.0 mm/hr 0.00 in0.0 mm
12:38 PM 69.3°F20.7°C 50.4°F10.2°C 51% 0.7 mph N1.1 kmh N 5.4 mph8.7 kmh 31.06 in1051.8 mb 0.00 in0.0 mm 0.00 in/hr0.0 mm/hr 0.00 in0.0 mm
12:39 PM 69.1°F20.6°C 50.2°F10.1°C 51% 2.2 mph N3.5 kmh N 6.9 mph11.1 kmh 31.06 in1051.8 mb 0.00 in0.0 mm 0.00 in/hr0.0 mm/hr 0.00 in0.0 mm
12:40 PM 69.1°F20.6°C 50.2°F10.1°C 51% 0.7 mph N1.1 kmh N 6.9 mph11.1 kmh 31.06 in1051.8 mb 0.00 in0.0 mm 0.00 in/hr0.0 mm/hr 0.00 in0.0 mm
12:41 PM 69.1°F20.6°C 50.2°F10.1°C 51% Calm Calm 6.9 mph11.1 kmh 31.06 in1051.8 mb 0.00 in0.0 mm 0.00 in/hr0.0 mm/hr 0.00 in0.0 mm
12:42 PM 69.1°F20.6°C 50.2°F10.1°C 51% 0.7 mph N1.1 kmh N 6.9 mph11.1 kmh 31.05 in1051.5 mb 0.00 in0.0 mm 0.00 in/hr0.0 mm/hr 0.00 in0.0 mm
12:43 PM 69.3°F20.7°C 50.4°F10.2°C 51% 1.6 mph NNW2.6 kmh NNW 6.9 mph11.1 kmh 31.06 in1051.8 mb 0.00 in0.0 mm 0.00 in/hr0.0 mm/hr 0.00 in0.0 mm
12:44 PM 69.3°F20.7°C 49.8°F9.9°C 50% 2.2 mph NNW3.5 kmh NNW 6.9 mph11.1 kmh 31.06 in1051.8 mb 0.00 in0.0 mm 0.00 in/hr0.0 mm/hr 0.00 in0.0 mm
12:45 PM 69.3°F20.7°C 49.8°F9.9°C 50% 1.6 mph NNW2.6 kmh NNW 6.9 mph11.1 kmh 31.06 in1051.8 mb 0.00 in0.0 mm 0.00 in/hr0.0 mm/hr 0.00 in0.0 mm
12:46 PM 69.1°F20.6°C 49.1°F9.5°C 49% 2.2 mph NNW3.5 kmh NNW 6.9 mph11.1 kmh 31.06 in1051.8 mb 0.00 in0.0 mm 0.00 in/hr0.0 mm/hr 0.00 in0.0 mm
12:47 PM 68.9°F20.5°C 50.1°F10.1°C 51% 2.2 mph NNW3.5 kmh NNW 9.2 mph14.8 kmh 31.06 in1051.8 mb 0.00 in0.0 mm 0.00 in/hr0.0 mm/hr 0.00 in0.0 mm
12:48 PM 68.7°F20.4°C 49.9°F9.9°C 51% 3.8 mph N6.1 kmh N 9.2 mph14.8 kmh 31.05 in1051.5 mb 0.00 in0.0 mm 0.00 in/hr0.0 mm/hr 0.00 in0.0 mm
12:49 PM 68.7°F20.4°C 49.9°F9.9°C 51% 3.1 mph N5.0 kmh N 9.2 mph14.8 kmh 31.06 in1051.8 mb 0.00 in0.0 mm 0.00 in/hr0.0 mm/hr 0.00 in0.0 mm
12:50 PM 68.5°F20.3°C 50.2°F10.1°C 52% 1.6 mph N2.6 kmh N 9.2 mph14.8 kmh 31.06 in1051.8 mb 0.00 in0.0 mm 0.00 in/hr0.0 mm/hr 0.00 in0.0 mm
12:51 PM 68.5°F20.3°C 50.2°F10.1°C 52% 0.7 mph N1.1 kmh N 9.2 mph14.8 kmh 31.05 in1051.5 mb 0.00 in0.0 mm 0.00 in/hr0.0 mm/hr 0.00 in0.0 mm
12:52 PM 68.5°F20.3°C 50.2°F10.1°C 52% 1.6 mph N2.6 kmh N 9.2 mph14.8 kmh 31.06 in1051.8 mb 0.00 in0.0 mm 0.00 in/hr0.0 mm/hr 0.00 in0.0 mm
12:53 PM 68.5°F20.3°C 50.2°F10.1°C 52% 0.7 mph N1.1 kmh N 9.2 mph14.8 kmh 31.06 in1051.8 mb 0.00 in0.0 mm 0.00 in/hr0.0 mm/hr 0.00 in0.0 mm
12:54 PM 68.7°F20.4°C 49.9°F9.9°C 51% 0.7 mph N1.1 kmh N 9.2 mph14.8 kmh 31.06 in1051.8 mb 0.00 in0.0 mm 0.00 in/hr0.0 mm/hr 0.00 in0.0 mm
12:55 PM 68.7°F20.4°C 49.9°F9.9°C 51% 1.6 mph N2.6 kmh N 9.2 mph14.8 kmh 31.06 in1051.8 mb 0.00 in0.0 mm 0.00 in/hr0.0 mm/hr 0.00 in0.0 mm
12:56 PM 68.9°F20.5°C 50.1°F10.1°C 51% 0.7 mph N1.1 kmh N 9.2 mph14.8 kmh 31.06 in1051.8 mb 0.00 in0.0 mm 0.00 in/hr0.0 mm/hr 0.00 in0.0 mm
12:57 PM 68.9°F20.5°C 50.1°F10.1°C 51% 0.7 mph N1.1 kmh N 7.6 mph12.2 kmh 31.05 in1051.5 mb 0.00 in0.0 mm 0.00 in/hr0.0 mm/hr 0.00 in0.0 mm
12:58 PM 69.1°F20.6°C 49.7°F9.8°C 50% 2.2 mph N3.5 kmh N 7.6 mph12.2 kmh 31.06 in1051.8 mb 0.00 in0.0 mm 0.00 in/hr0.0 mm/hr 0.00 in0.0 mm
12:59 PM 69.1°F20.6°C 50.2°F10.1°C 51% 1.6 mph N2.6 kmh N 6.0 mph9.7 kmh 31.06 in1051.8 mb 0.00 in0.0 mm 0.00 in/hr0.0 mm/hr 0.00 in0.0 mm
01:00 PM 69.1°F20.6°C 49.7°F9.8°C 50% 2.2 mph N3.5 kmh N 5.4 mph8.7 kmh 31.06 in1051.8 mb 0.00 in0.0 mm 0.00 in/hr0.0 mm/hr 0.00 in0.0 mm
01:01 PM 69.1°F20.6°C 49.7°F9.8°C 50% 1.6 mph N2.6 kmh N 5.4 mph8.7 kmh 31.05 in1051.5 mb 0.00 in0.0 mm 0.00 in/hr0.0 mm/hr 0.00 in0.0 mm
01:02 PM 69.3°F20.7°C 50.4°F10.2°C 51% Calm Calm 5.4 mph8.7 kmh 31.06 in1051.8 mb 0.00 in0.0 mm 0.00 in/hr0.0 mm/hr 0.00 in0.0 mm
01:03 PM 69.3°F20.7°C 50.4°F10.2°C 51% 0.7 mph N1.1 kmh N 5.4 mph8.7 kmh 31.06 in1051.8 mb 0.00 in0.0 mm 0.00 in/hr0.0 mm/hr 0.00 in0.0 mm
01:04 PM 69.3°F20.7°C 49.8°F9.9°C 50% 2.2 mph N3.5 kmh N 5.4 mph8.7 kmh 31.06 in1051.8 mb 0.00 in0.0 mm 0.00 in/hr0.0 mm/hr 0.00 in0.0 mm
01:05 PM 69.1°F20.6°C 49.1°F9.5°C 49% 3.8 mph NNW6.1 kmh NNW 6.9 mph11.1 kmh 31.06 in1051.8 mb 0.00 in0.0 mm 0.00 in/hr0.0 mm/hr 0.00 in0.0 mm
01:06 PM 68.9°F20.5°C 49.5°F9.7°C 50% 3.8 mph NNW6.1 kmh NNW 6.9 mph11.1 kmh 31.06 in1051.8 mb 0.00 in0.0 mm 0.00 in/hr0.0 mm/hr 0.00 in0.0 mm
01:07 PM 68.9°F20.5°C 50.1°F10.1°C 51% 3.1 mph N5.0 kmh N 6.9 mph11.1 kmh 31.05 in1051.5 mb 0.00 in0.0 mm 0.00 in/hr0.0 mm/hr 0.00 in0.0 mm
01:08 PM 68.9°F20.5°C 50.1°F10.1°C 51% 2.2 mph NNW3.5 kmh NNW 6.9 mph11.1 kmh 31.05 in1051.5 mb 0.00 in0.0 mm 0.00 in/hr0.0 mm/hr 0.00 in0.0 mm
01:09 PM 68.9°F20.5°C 50.1°F10.1°C 51% 2.2 mph NNW3.5 kmh NNW 6.9 mph11.1 kmh 31.06 in1051.8 mb 0.00 in0.0 mm 0.00 in/hr0.0 mm/hr 0.00 in0.0 mm
01:10 PM 68.9°F20.5°C 50.1°F10.1°C 51% 1.6 mph NNW2.6 kmh NNW 6.9 mph11.1 kmh 31.06 in1051.8 mb 0.00 in0.0 mm 0.00 in/hr0.0 mm/hr 0.00 in0.0 mm
01:11 PM 68.9°F20.5°C 50.1°F10.1°C 51% 1.6 mph NNW2.6 kmh NNW 6.9 mph11.1 kmh 31.05 in1051.5 mb 0.00 in0.0 mm 0.00 in/hr0.0 mm/hr 0.00 in0.0 mm
01:12 PM 69.1°F20.6°C 49.7°F9.8°C 50% 2.2 mph NNW3.5 kmh NNW 6.9 mph11.1 kmh 31.05 in1051.5 mb 0.00 in0.0 mm 0.00 in/hr0.0 mm/hr 0.00 in0.0 mm
01:13 PM 68.9°F20.5°C 49.0°F9.4°C 49% 3.1 mph N5.0 kmh N 6.9 mph11.1 kmh 31.06 in1051.8 mb 0.00 in0.0 mm 0.00 in/hr0.0 mm/hr 0.00 in0.0 mm
01:14 PM 68.9°F20.5°C 48.4°F9.1°C 48% 2.2 mph N3.5 kmh N 6.9 mph11.1 kmh 31.05 in1051.5 mb 0.00 in0.0 mm 0.00 in/hr0.0 mm/hr 0.00 in0.0 mm
01:15 PM 68.9°F20.5°C 49.0°F9.4°C 49% 1.6 mph N2.6 kmh N 6.9 mph11.1 kmh 31.06 in1051.8 mb 0.00 in0.0 mm 0.00 in/hr0.0 mm/hr 0.00 in0.0 mm
01:16 PM 69.1°F20.6°C 49.1°F9.5°C 49% Calm Calm 6.0 mph9.7 kmh 31.06 in1051.8 mb 0.00 in0.0 mm 0.00 in/hr0.0 mm/hr 0.00 in0.0 mm
01:17 PM 69.3°F20.7°C 49.3°F9.6°C 49% 1.6 mph N2.6 kmh N 6.0 mph9.7 kmh 31.05 in1051.5 mb 0.00 in0.0 mm 0.00 in/hr0.0 mm/hr 0.00 in0.0 mm
01:18 PM 69.4°F20.8°C 49.5°F9.7°C 49% 3.1 mph N5.0 kmh N 6.0 mph9.7 kmh 31.05 in1051.5 mb 0.00 in0.0 mm 0.00 in/hr0.0 mm/hr 0.00 in0.0 mm
01:19 PM 69.4°F20.8°C 49.5°F9.7°C 49% 1.6 mph N2.6 kmh N 6.0 mph9.7 kmh 31.06 in1051.8 mb 0.00 in0.0 mm 0.00 in/hr0.0 mm/hr 0.00 in0.0 mm
01:20 PM 69.4°F20.8°C 49.5°F9.7°C 49% 2.2 mph N3.5 kmh N 6.0 mph9.7 kmh 31.05 in1051.5 mb 0.00 in0.0 mm 0.00 in/hr0.0 mm/hr 0.00 in0.0 mm
01:21 PM 69.6°F20.9°C 49.1°F9.5°C 48% 1.6 mph N2.6 kmh N 6.0 mph9.7 kmh 31.05 in1051.5 mb 0.00 in0.0 mm 0.00 in/hr0.0 mm/hr 0.00 in0.0 mm
01:22 PM 69.6°F20.9°C 49.1°F9.5°C 48% 1.6 mph N2.6 kmh N 6.0 mph9.7 kmh 31.06 in1051.8 mb 0.00 in0.0 mm 0.00 in/hr0.0 mm/hr 0.00 in0.0 mm
01:23 PM 69.6°F20.9°C 49.1°F9.5°C 48% 2.2 mph N3.5 kmh N 6.0 mph9.7 kmh 31.05 in1051.5 mb 0.00 in0.0 mm 0.00 in/hr0.0 mm/hr 0.00 in0.0 mm
01:24 PM 69.6°F20.9°C 48.5°F9.2°C 47% 2.2 mph N3.5 kmh N 6.0 mph9.7 kmh 31.05 in1051.5 mb 0.00 in0.0 mm 0.00 in/hr0.0 mm/hr 0.00 in0.0 mm
01:25 PM 69.6°F20.9°C 48.5°F9.2°C 47% 3.1 mph N5.0 kmh N 6.0 mph9.7 kmh 31.06 in1051.8 mb 0.00 in0.0 mm 0.00 in/hr0.0 mm/hr 0.00 in0.0 mm
01:26 PM 69.3°F20.7°C 47.6°F8.7°C 46% 4.5 mph N7.2 kmh N 8.3 mph13.4 kmh 31.05 in1051.5 mb 0.00 in0.0 mm 0.00 in/hr0.0 mm/hr 0.00 in0.0 mm
01:27 PM 69.1°F20.6°C 47.5°F8.6°C 46% 3.8 mph N6.1 kmh N 8.3 mph13.4 kmh 31.05 in1051.5 mb 0.00 in0.0 mm 0.00 in/hr0.0 mm/hr 0.00 in0.0 mm
01:28 PM 69.1°F20.6°C 48.0°F8.9°C 47% 3.1 mph NNE5.0 kmh NNE 8.3 mph13.4 kmh 31.05 in1051.5 mb 0.00 in0.0 mm 0.00 in/hr0.0 mm/hr 0.00 in0.0 mm
01:29 PM 68.9°F20.5°C 48.4°F9.1°C 48% 4.5 mph NNE7.2 kmh NNE 8.3 mph13.4 kmh 31.06 in1051.8 mb 0.00 in0.0 mm 0.00 in/hr0.0 mm/hr 0.00 in0.0 mm
01:30 PM 68.9°F20.5°C 48.4°F9.1°C 48% 3.1 mph NNE5.0 kmh NNE 8.3 mph13.4 kmh 31.05 in1051.5 mb 0.00 in0.0 mm 0.00 in/hr0.0 mm/hr 0.00 in0.0 mm
01:31 PM 68.9°F20.5°C 49.0°F9.4°C 49% 2.2 mph NNE3.5 kmh NNE 8.3 mph13.4 kmh 31.06 in1051.8 mb 0.00 in0.0 mm 0.00 in/hr0.0 mm/hr 0.00 in0.0 mm
01:32 PM 68.9°F20.5°C 49.0°F9.4°C 49% 3.1 mph NNE5.0 kmh NNE 8.3 mph13.4 kmh 31.06 in1051.8 mb 0.00 in0.0 mm 0.00 in/hr0.0 mm/hr 0.00 in0.0 mm
01:33 PM 69.1°F20.6°C 49.7°F9.8°C 50% 3.1 mph N5.0 kmh N 8.3 mph13.4 kmh 31.06 in1051.8 mb 0.00 in0.0 mm 0.00 in/hr0.0 mm/hr 0.00 in0.0 mm
01:34 PM 69.1°F20.6°C 49.7°F9.8°C 50% 1.6 mph N2.6 kmh N 8.3 mph13.4 kmh 31.06 in1051.8 mb 0.00 in0.0 mm 0.00 in/hr0.0 mm/hr 0.00 in0.0 mm
01:35 PM 69.1°F20.6°C 49.1°F9.5°C 49% 3.1 mph N5.0 kmh N 8.3 mph13.4 kmh 31.06 in1051.8 mb 0.00 in0.0 mm 0.00 in/hr0.0 mm/hr 0.00 in0.0 mm
01:36 PM 69.3°F20.7°C 49.8°F9.9°C 50% 1.6 mph N2.6 kmh N 7.6 mph12.2 kmh 31.06 in1051.8 mb 0.00 in0.0 mm 0.00 in/hr0.0 mm/hr 0.00 in0.0 mm
01:37 PM 69.3°F20.7°C 49.3°F9.6°C 49% 2.2 mph N3.5 kmh N 7.6 mph12.2 kmh 31.06 in1051.8 mb 0.00 in0.0 mm 0.00 in/hr0.0 mm/hr 0.00 in0.0 mm
01:38 PM 69.4°F20.8°C 49.5°F9.7°C 49% 3.1 mph N5.0 kmh N 7.6 mph12.2 kmh 31.06 in1051.8 mb 0.00 in0.0 mm 0.00 in/hr0.0 mm/hr 0.00 in0.0 mm
01:39 PM 69.1°F20.6°C 49.1°F9.5°C 49% 4.5 mph N7.2 kmh N 8.3 mph13.4 kmh 31.06 in1051.8 mb 0.00 in0.0 mm 0.00 in/hr0.0 mm/hr 0.00 in0.0 mm
01:40 PM 69.3°F20.7°C 49.3°F9.6°C 49% 2.2 mph N3.5 kmh N 8.3 mph13.4 kmh 31.06 in1051.8 mb 0.00 in0.0 mm 0.00 in/hr0.0 mm/hr 0.00 in0.0 mm
01:41 PM 69.3°F20.7°C 49.3°F9.6°C 49% 1.6 mph N2.6 kmh N 8.3 mph13.4 kmh 31.06 in1051.8 mb 0.00 in0.0 mm 0.00 in/hr0.0 mm/hr 0.00 in0.0 mm
01:42 PM 69.3°F20.7°C 49.3°F9.6°C 49% 3.1 mph N5.0 kmh N 8.3 mph13.4 kmh 31.06 in1051.8 mb 0.00 in0.0 mm 0.00 in/hr0.0 mm/hr 0.00 in0.0 mm
01:43 PM 69.4°F20.8°C 49.5°F9.7°C 49% 2.2 mph NNE3.5 kmh NNE 8.3 mph13.4 kmh 31.06 in1051.8 mb 0.00 in0.0 mm 0.00 in/hr0.0 mm/hr 0.00 in0.0 mm
01:44 PM 69.4°F20.8°C 50.0°F10.0°C 50% 1.6 mph NNE2.6 kmh NNE 8.3 mph13.4 kmh 31.06 in1051.8 mb 0.00 in0.0 mm 0.00 in/hr0.0 mm/hr 0.00 in0.0 mm
01:45 PM 69.6°F20.9°C 50.2°F10.1°C 50% 1.6 mph NNE2.6 kmh NNE 8.3 mph13.4 kmh 31.06 in1051.8 mb 0.00 in0.0 mm 0.00 in/hr0.0 mm/hr 0.00 in0.0 mm
01:46 PM 69.6°F20.9°C 50.2°F10.1°C 50% 1.6 mph NNE2.6 kmh NNE 8.3 mph13.4 kmh 31.06 in1051.8 mb 0.00 in0.0 mm 0.00 in/hr0.0 mm/hr 0.00 in0.0 mm
01:47 PM 69.8°F21.0°C 49.8°F9.9°C 49% 3.1 mph NNE5.0 kmh NNE 8.3 mph13.4 kmh 31.06 in1051.8 mb 0.00 in0.0 mm 0.00 in/hr0.0 mm/hr 0.00 in0.0 mm
01:48 PM 69.6°F20.9°C 49.6°F9.8°C 49% 2.2 mph NNE3.5 kmh NNE 8.3 mph13.4 kmh 31.06 in1051.8 mb 0.00 in0.0 mm 0.00 in/hr0.0 mm/hr 0.00 in0.0 mm
01:49 PM 69.4°F20.8°C 48.9°F9.4°C 48% 4.5 mph NNE7.2 kmh NNE 8.3 mph13.4 kmh 31.06 in1051.8 mb 0.00 in0.0 mm 0.00 in/hr0.0 mm/hr 0.00 in0.0 mm
01:50 PM 69.1°F20.6°C 49.1°F9.5°C 49% 4.5 mph NNE7.2 kmh NNE 8.3 mph13.4 kmh 31.06 in1051.8 mb 0.00 in0.0 mm 0.00 in/hr0.0 mm/hr 0.00 in0.0 mm
01:51 PM 69.1°F20.6°C 49.1°F9.5°C 49% 3.1 mph NNE5.0 kmh NNE 8.3 mph13.4 kmh 31.05 in1051.5 mb 0.00 in0.0 mm 0.00 in/hr0.0 mm/hr 0.00 in0.0 mm
01:52 PM 69.1°F20.6°C 49.7°F9.8°C 50% 3.8 mph N6.1 kmh N 8.3 mph13.4 kmh 31.06 in1051.8 mb 0.00 in0.0 mm 0.00 in/hr0.0 mm/hr 0.00 in0.0 mm
01:53 PM 69.1°F20.6°C 49.7°F9.8°C 50% 2.2 mph N3.5 kmh N 8.3 mph13.4 kmh 31.06 in1051.8 mb 0.00 in0.0 mm 0.00 in/hr0.0 mm/hr 0.00 in0.0 mm
01:54 PM 68.9°F20.5°C 49.5°F9.7°C 50% 3.8 mph N6.1 kmh N 9.8 mph15.8 kmh 31.06 in1051.8 mb 0.00 in0.0 mm 0.00 in/hr0.0 mm/hr 0.00 in0.0 mm
01:55 PM 68.9°F20.5°C 50.1°F10.1°C 51% 2.2 mph N3.5 kmh N 9.8 mph15.8 kmh 31.06 in1051.8 mb 0.00 in0.0 mm 0.00 in/hr0.0 mm/hr 0.00 in0.0 mm
01:56 PM 68.9°F20.5°C 50.1°F10.1°C 51% 3.1 mph N5.0 kmh N 9.8 mph15.8 kmh 31.06 in1051.8 mb 0.00 in0.0 mm 0.00 in/hr0.0 mm/hr 0.00 in0.0 mm
01:57 PM 68.9°F20.5°C 50.1°F10.1°C 51% 3.8 mph N6.1 kmh N 9.8 mph15.8 kmh 31.06 in1051.8 mb 0.00 in0.0 mm 0.00 in/hr0.0 mm/hr 0.00 in0.0 mm
01:58 PM 69.1°F20.6°C 50.2°F10.1°C 51% 2.2 mph N3.5 kmh N 9.8 mph15.8 kmh 31.06 in1051.8 mb 0.00 in0.0 mm 0.00 in/hr0.0 mm/hr 0.00 in0.0 mm
01:59 PM 68.9°F20.5°C 49.5°F9.7°C 50% 3.1 mph N5.0 kmh N 9.8 mph15.8 kmh 31.06 in1051.8 mb 0.00 in0.0 mm 0.00 in/hr0.0 mm/hr 0.00 in0.0 mm
02:00 PM 69.1°F20.6°C 49.7°F9.8°C 50% 1.6 mph N2.6 kmh N 9.8 mph15.8 kmh 31.06 in1051.8 mb 0.00 in0.0 mm 0.00 in/hr0.0 mm/hr 0.00 in0.0 mm
02:01 PM 69.1°F20.6°C 49.7°F9.8°C 50% 2.2 mph N3.5 kmh N 9.8 mph15.8 kmh 31.06 in1051.8 mb 0.00 in0.0 mm 0.00 in/hr0.0 mm/hr 0.00 in0.0 mm
02:02 PM 69.1°F20.6°C 49.7°F9.8°C 50% 3.1 mph N5.0 kmh N 9.8 mph15.8 kmh 31.06 in1051.8 mb 0.00 in0.0 mm 0.00 in/hr0.0 mm/hr 0.00 in0.0 mm
02:03 PM 69.3°F20.7°C 50.4°F10.2°C 51% 3.1 mph N5.0 kmh N 9.8 mph15.8 kmh 31.06 in1051.8 mb 0.00 in0.0 mm 0.00 in/hr0.0 mm/hr 0.00 in0.0 mm
02:04 PM 69.1°F20.6°C 49.7°F9.8°C 50% 6.0 mph N9.7 kmh N 9.8 mph15.8 kmh 31.06 in1051.8 mb 0.00 in0.0 mm 0.00 in/hr0.0 mm/hr 0.00 in0.0 mm
02:05 PM 68.7°F20.4°C 49.4°F9.7°C 50% 4.5 mph N7.2 kmh N 9.8 mph15.8 kmh 31.06 in1051.8 mb 0.00 in0.0 mm 0.00 in/hr0.0 mm/hr 0.00 in0.0 mm
02:06 PM 68.9°F20.5°C 50.1°F10.1°C 51% 3.1 mph N5.0 kmh N 9.8 mph15.8 kmh 31.06 in1051.8 mb 0.00 in0.0 mm 0.00 in/hr0.0 mm/hr 0.00 in0.0 mm
02:07 PM 68.7°F20.4°C 49.9°F9.9°C 51% 3.1 mph NNW5.0 kmh NNW 9.8 mph15.8 kmh 31.06 in1051.8 mb 0.00 in0.0 mm 0.00 in/hr0.0 mm/hr 0.00 in0.0 mm
02:08 PM 68.9°F20.5°C 50.1°F10.1°C 51% 3.1 mph NNW5.0 kmh NNW 9.8 mph15.8 kmh 31.06 in1051.8 mb 0.00 in0.0 mm 0.00 in/hr0.0 mm/hr 0.00 in0.0 mm
02:09 PM 68.9°F20.5°C 50.1°F10.1°C 51% 2.2 mph NNW3.5 kmh NNW 9.8 mph15.8 kmh 31.06 in1051.8 mb 0.00 in0.0 mm 0.00 in/hr0.0 mm/hr 0.00 in0.0 mm
02:10 PM 69.1°F20.6°C 50.2°F10.1°C 51% 3.1 mph NNW5.0 kmh NNW 9.8 mph15.8 kmh 31.06 in1051.8 mb 0.00 in0.0 mm 0.00 in/hr0.0 mm/hr 0.00 in0.0 mm
02:11 PM 69.3°F20.7°C 50.4°F10.2°C 51% 1.6 mph NNW2.6 kmh NNW 9.8 mph15.8 kmh 31.05 in1051.5 mb 0.00 in0.0 mm 0.00 in/hr0.0 mm/hr 0.00 in0.0 mm
02:12 PM 69.3°F20.7°C 49.8°F9.9°C 50% 3.1 mph NNW5.0 kmh NNW 9.8 mph15.8 kmh 31.06 in1051.8 mb 0.00 in0.0 mm 0.00 in/hr0.0 mm/hr 0.00 in0.0 mm
02:13 PM 69.3°F20.7°C 49.8°F9.9°C 50% 3.8 mph NNW6.1 kmh NNW 9.8 mph15.8 kmh 31.06 in1051.8 mb 0.00 in0.0 mm 0.00 in/hr0.0 mm/hr 0.00 in0.0 mm
02:14 PM 69.4°F20.8°C 50.0°F10.0°C 50% 1.6 mph N2.6 kmh N 9.8 mph15.8 kmh 31.06 in1051.8 mb 0.00 in0.0 mm 0.00 in/hr0.0 mm/hr 0.00 in0.0 mm
02:15 PM 69.4°F20.8°C 50.0°F10.0°C 50% 3.8 mph N6.1 kmh N 7.6 mph12.2 kmh 31.06 in1051.8 mb 0.00 in0.0 mm 0.00 in/hr0.0 mm/hr 0.00 in0.0 mm
02:16 PM 69.4°F20.8°C 49.5°F9.7°C 49% 4.5 mph N7.2 kmh N 8.3 mph13.4 kmh 31.05 in1051.5 mb 0.00 in0.0 mm 0.00 in/hr0.0 mm/hr 0.00 in0.0 mm
02:17 PM 69.4°F20.8°C 50.0°F10.0°C 50% 2.2 mph N3.5 kmh N 8.3 mph13.4 kmh 31.06 in1051.8 mb 0.00 in0.0 mm 0.00 in/hr0.0 mm/hr 0.00 in0.0 mm
02:18 PM 69.4°F20.8°C 50.0°F10.0°C 50% 3.1 mph N5.0 kmh N 8.3 mph13.4 kmh 31.06 in1051.8 mb 0.00 in0.0 mm 0.00 in/hr0.0 mm/hr 0.00 in0.0 mm
02:19 PM 69.3°F20.7°C 49.3°F9.6°C 49% 3.8 mph N6.1 kmh N 9.2 mph14.8 kmh 31.06 in1051.8 mb 0.00 in0.0 mm 0.00 in/hr0.0 mm/hr 0.00 in0.0 mm
02:20 PM 69.3°F20.7°C 48.8°F9.3°C 48% 5.4 mph N8.7 kmh N 9.8 mph15.8 kmh 31.06 in1051.8 mb 0.00 in0.0 mm 0.00 in/hr0.0 mm/hr 0.00 in0.0 mm
02:21 PM 69.1°F20.6°C 48.6°F9.2°C 48% 4.5 mph N7.2 kmh N 9.8 mph15.8 kmh 31.06 in1051.8 mb 0.00 in0.0 mm 0.00 in/hr0.0 mm/hr 0.00 in0.0 mm
02:22 PM 69.1°F20.6°C 49.1°F9.5°C 49% 3.1 mph N5.0 kmh N 9.8 mph15.8 kmh 31.06 in1051.8 mb 0.00 in0.0 mm 0.00 in/hr0.0 mm/hr 0.00 in0.0 mm
02:23 PM 68.9°F20.5°C 49.0°F9.4°C 49% 3.8 mph N6.1 kmh N 9.8 mph15.8 kmh 31.05 in1051.5 mb 0.00 in0.0 mm 0.00 in/hr0.0 mm/hr 0.00 in0.0 mm
02:24 PM 68.9°F20.5°C 49.0°F9.4°C 49% 3.1 mph N5.0 kmh N 9.8 mph15.8 kmh 31.06 in1051.8 mb 0.00 in0.0 mm 0.00 in/hr0.0 mm/hr 0.00 in0.0 mm
02:25 PM 68.9°F20.5°C 49.0°F9.4°C 49% 0.7 mph N1.1 kmh N 9.8 mph15.8 kmh 31.06 in1051.8 mb 0.00 in0.0 mm 0.00 in/hr0.0 mm/hr 0.00 in0.0 mm
02:26 PM 68.7°F20.4°C 48.8°F9.3°C 49% 3.8 mph N6.1 kmh N 9.8 mph15.8 kmh 31.06 in1051.8 mb 0.00 in0.0 mm 0.00 in/hr0.0 mm/hr 0.00 in0.0 mm
02:27 PM 68.9°F20.5°C 49.5°F9.7°C 50% 1.6 mph N2.6 kmh N 9.8 mph15.8 kmh 31.06 in1051.8 mb 0.00 in0.0 mm 0.00 in/hr0.0 mm/hr 0.00 in0.0 mm
02:28 PM 69.1°F20.6°C 49.1°F9.5°C 49% 0.7 mph N1.1 kmh N 9.8 mph15.8 kmh 31.06 in1051.8 mb 0.00 in0.0 mm 0.00 in/hr0.0 mm/hr 0.00 in0.0 mm
02:29 PM 69.1°F20.6°C 49.1°F9.5°C 49% 3.1 mph N5.0 kmh N 9.8 mph15.8 kmh 31.06 in1051.8 mb 0.00 in0.0 mm 0.00 in/hr0.0 mm/hr 0.00 in0.0 mm
02:30 PM 69.1°F20.6°C 48.6°F9.2°C 48% 2.2 mph N3.5 kmh N 9.8 mph15.8 kmh 31.06 in1051.8 mb 0.00 in0.0 mm 0.00 in/hr0.0 mm/hr 0.00 in0.0 mm
02:31 PM 69.1°F20.6°C 49.1°F9.5°C 49% 1.6 mph N2.6 kmh N 8.3 mph13.4 kmh 31.06 in1051.8 mb 0.00 in0.0 mm 0.00 in/hr0.0 mm/hr 0.00 in0.0 mm
02:32 PM 69.3°F20.7°C 49.3°F9.6°C 49% 2.2 mph N3.5 kmh N 8.3 mph13.4 kmh 31.06 in1051.8 mb 0.00 in0.0 mm 0.00 in/hr0.0 mm/hr 0.00 in0.0 mm
02:33 PM 69.3°F20.7°C 49.3°F9.6°C 49% 2.2 mph N3.5 kmh N 8.3 mph13.4 kmh 31.06 in1051.8 mb 0.00 in0.0 mm 0.00 in/hr0.0 mm/hr 0.00 in0.0 mm
02:34 PM 69.3°F20.7°C 49.3°F9.6°C 49% 1.6 mph N2.6 kmh N 8.3 mph13.4 kmh 31.06 in1051.8 mb 0.00 in0.0 mm 0.00 in/hr0.0 mm/hr 0.00 in0.0 mm
02:35 PM 69.3°F20.7°C 49.3°F9.6°C 49% 3.1 mph N5.0 kmh N 8.3 mph13.4 kmh 31.06 in1051.8 mb 0.00 in0.0 mm 0.00 in/hr0.0 mm/hr 0.00 in0.0 mm
02:36 PM 69.3°F20.7°C 48.8°F9.3°C 48% 3.8 mph N6.1 kmh N 8.3 mph13.4 kmh 31.05 in1051.5 mb 0.00 in0.0 mm 0.00 in/hr0.0 mm/hr 0.00 in0.0 mm
02:37 PM 69.3°F20.7°C 49.3°F9.6°C 49% 1.6 mph NNE2.6 kmh NNE 6.9 mph11.1 kmh 31.06 in1051.8 mb 0.00 in0.0 mm 0.00 in/hr0.0 mm/hr 0.00 in0.0 mm
02:38 PM 69.4°F20.8°C 49.5°F9.7°C 49% 1.6 mph NNE2.6 kmh NNE 6.9 mph11.1 kmh 31.06 in1051.8 mb 0.00 in0.0 mm 0.00 in/hr0.0 mm/hr 0.00 in0.0 mm
02:39 PM 69.4°F20.8°C 48.9°F9.4°C 48% 3.1 mph NNE5.0 kmh NNE 6.9 mph11.1 kmh 31.06 in1051.8 mb 0.00 in0.0 mm 0.00 in/hr0.0 mm/hr 0.00 in0.0 mm
02:40 PM 69.4°F20.8°C 48.9°F9.4°C 48% 3.1 mph NNE5.0 kmh NNE 6.9 mph11.1 kmh 31.06 in1051.8 mb 0.00 in0.0 mm 0.00 in/hr0.0 mm/hr 0.00 in0.0 mm
02:41 PM 69.4°F20.8°C 48.9°F9.4°C 48% 3.1 mph NNE5.0 kmh NNE 7.6 mph12.2 kmh 31.07 in1052.2 mb 0.00 in0.0 mm 0.00 in/hr0.0 mm/hr 0.00 in0.0 mm
02:42 PM 69.4°F20.8°C 48.9°F9.4°C 48% 2.2 mph NNE3.5 kmh NNE 7.6 mph12.2 kmh 31.06 in1051.8 mb 0.00 in0.0 mm 0.00 in/hr0.0 mm/hr 0.00 in0.0 mm
02:43 PM 69.3°F20.7°C 48.8°F9.3°C 48% 3.1 mph N5.0 kmh N 7.6 mph12.2 kmh 31.06 in1051.8 mb 0.00 in0.0 mm 0.00 in/hr0.0 mm/hr 0.00 in0.0 mm
02:44 PM 69.3°F20.7°C 48.8°F9.3°C 48% 3.8 mph N6.1 kmh N 7.6 mph12.2 kmh 31.06 in1051.8 mb 0.00 in0.0 mm 0.00 in/hr0.0 mm/hr 0.00 in0.0 mm
02:45 PM 69.1°F20.6°C 48.6°F9.2°C 48% 3.1 mph N5.0 kmh N 7.6 mph12.2 kmh 31.07 in1052.2 mb 0.00 in0.0 mm 0.00 in/hr0.0 mm/hr 0.00 in0.0 mm
02:46 PM 69.1°F20.6°C 48.0°F8.9°C 47% 3.1 mph N5.0 kmh N 7.6 mph12.2 kmh 31.06 in1051.8 mb 0.00 in0.0 mm 0.00 in/hr0.0 mm/hr 0.00 in0.0 mm
02:47 PM 69.1°F20.6°C 48.6°F9.2°C 48% 3.1 mph N5.0 kmh N 7.6 mph12.2 kmh 31.06 in1051.8 mb 0.00 in0.0 mm 0.00 in/hr0.0 mm/hr 0.00 in0.0 mm
02:48 PM 69.1°F20.6°C 48.6°F9.2°C 48% 1.6 mph N2.6 kmh N 7.6 mph12.2 kmh 31.06 in1051.8 mb 0.00 in0.0 mm 0.00 in/hr0.0 mm/hr 0.00 in0.0 mm
02:49 PM 69.1°F20.6°C 48.6°F9.2°C 48% 3.8 mph N6.1 kmh N 7.6 mph12.2 kmh 31.06 in1051.8 mb 0.00 in0.0 mm 0.00 in/hr0.0 mm/hr 0.00 in0.0 mm
02:50 PM 68.9°F20.5°C 48.4°F9.1°C 48% 3.8 mph N6.1 kmh N 7.6 mph12.2 kmh 31.06 in1051.8 mb 0.00 in0.0 mm 0.00 in/hr0.0 mm/hr 0.00 in0.0 mm
02:51 PM 68.9°F20.5°C 48.4°F9.1°C 48% 3.1 mph N5.0 kmh N 7.6 mph12.2 kmh 31.06 in1051.8 mb 0.00 in0.0 mm 0.00 in/hr0.0 mm/hr 0.00 in0.0 mm
02:52 PM 68.9°F20.5°C 48.4°F9.1°C 48% 3.1 mph N5.0 kmh N 7.6 mph12.2 kmh 31.06 in1051.8 mb 0.00 in0.0 mm 0.00 in/hr0.0 mm/hr 0.00 in0.0 mm
02:53 PM 68.9°F20.5°C 48.4°F9.1°C 48% 3.1 mph N5.0 kmh N 7.6 mph12.2 kmh 31.07 in1052.2 mb 0.00 in0.0 mm 0.00 in/hr0.0 mm/hr 0.00 in0.0 mm
02:54 PM 68.9°F20.5°C 48.4°F9.1°C 48% 2.2 mph N3.5 kmh N 7.6 mph12.2 kmh 31.06 in1051.8 mb 0.00 in0.0 mm 0.00 in/hr0.0 mm/hr 0.00 in0.0 mm
02:55 PM 68.7°F20.4°C 48.3°F9.1°C 48% 3.8 mph N6.1 kmh N 7.6 mph12.2 kmh 31.07 in1052.2 mb 0.00 in0.0 mm 0.00 in/hr0.0 mm/hr 0.00 in0.0 mm
02:56 PM 68.7°F20.4°C 48.3°F9.1°C 48% 3.1 mph N5.0 kmh N 7.6 mph12.2 kmh 31.06 in1051.8 mb 0.00 in0.0 mm 0.00 in/hr0.0 mm/hr 0.00 in0.0 mm
02:57 PM 68.5°F20.3°C 48.1°F8.9°C 48% 3.1 mph N5.0 kmh N 7.6 mph12.2 kmh 31.06 in1051.8 mb 0.00 in0.0 mm 0.00 in/hr0.0 mm/hr 0.00 in0.0 mm
02:58 PM 68.4°F20.2°C 47.9°F8.8°C 48% 3.1 mph NNE5.0 kmh NNE 7.6 mph12.2 kmh 31.06 in1051.8 mb 0.00 in0.0 mm 0.00 in/hr0.0 mm/hr 0.00 in0.0 mm
02:59 PM 68.2°F20.1°C 47.8°F8.8°C 48% 3.1 mph NNE5.0 kmh NNE 7.6 mph12.2 kmh 31.06 in1051.8 mb 0.00 in0.0 mm 0.00 in/hr0.0 mm/hr 0.00 in0.0 mm
03:00 PM 68.0°F20.0°C 47.0°F8.3°C 47% 3.8 mph N6.1 kmh N 7.6 mph12.2 kmh 31.07 in1052.2 mb 0.00 in0.0 mm 0.00 in/hr0.0 mm/hr 0.00 in0.0 mm
03:01 PM 68.0°F20.0°C 47.6°F8.7°C 48% 3.1 mph N5.0 kmh N 7.6 mph12.2 kmh 31.06 in1051.8 mb 0.00 in0.0 mm 0.00 in/hr0.0 mm/hr 0.00 in0.0 mm
03:02 PM 68.0°F20.0°C 47.6°F8.7°C 48% 3.1 mph N5.0 kmh N 7.6 mph12.2 kmh 31.06 in1051.8 mb 0.00 in0.0 mm 0.00 in/hr0.0 mm/hr 0.00 in0.0 mm
03:03 PM 67.6°F19.8°C 47.3°F8.5°C 48% 3.1 mph N5.0 kmh N 7.6 mph12.2 kmh 31.06 in1051.8 mb 0.00 in0.0 mm 0.00 in/hr0.0 mm/hr 0.00 in0.0 mm
03:04 PM 67.5°F19.7°C 47.1°F8.4°C 48% 5.4 mph N8.7 kmh N 7.6 mph12.2 kmh 31.06 in1051.8 mb 0.00 in0.0 mm 0.00 in/hr0.0 mm/hr 0.00 in0.0 mm
03:05 PM 67.5°F19.7°C 47.1°F8.4°C 48% 3.1 mph N5.0 kmh N 7.6 mph12.2 kmh 31.07 in1052.2 mb 0.00 in0.0 mm 0.00 in/hr0.0 mm/hr 0.00 in0.0 mm
03:06 PM 67.5°F19.7°C 47.7°F8.7°C 49% 1.6 mph N2.6 kmh N 7.6 mph12.2 kmh 31.07 in1052.2 mb 0.00 in0.0 mm 0.00 in/hr0.0 mm/hr 0.00 in0.0 mm
03:07 PM 67.3°F19.6°C 47.5°F8.6°C 49% 3.8 mph N6.1 kmh N 7.6 mph12.2 kmh 31.06 in1051.8 mb 0.00 in0.0 mm 0.00 in/hr0.0 mm/hr 0.00 in0.0 mm
03:08 PM 67.3°F19.6°C 47.5°F8.6°C 49% 2.2 mph N3.5 kmh N 7.6 mph12.2 kmh 31.07 in1052.2 mb 0.00 in0.0 mm 0.00 in/hr0.0 mm/hr 0.00 in0.0 mm
03:09 PM 67.3°F19.6°C 48.0°F8.9°C 50% 1.6 mph N2.6 kmh N 7.6 mph12.2 kmh 31.07 in1052.2 mb 0.00 in0.0 mm 0.00 in/hr0.0 mm/hr 0.00 in0.0 mm
03:10 PM 67.3°F19.6°C 48.0°F8.9°C 50% 2.2 mph N3.5 kmh N 7.6 mph12.2 kmh 31.06 in1051.8 mb 0.00 in0.0 mm 0.00 in/hr0.0 mm/hr 0.00 in0.0 mm
03:11 PM 67.3°F19.6°C 48.0°F8.9°C 50% 1.6 mph N2.6 kmh N 7.6 mph12.2 kmh 31.06 in1051.8 mb 0.00 in0.0 mm 0.00 in/hr0.0 mm/hr 0.00 in0.0 mm
03:12 PM 67.1°F19.5°C 47.9°F8.8°C 50% 3.1 mph N5.0 kmh N 7.6 mph12.2 kmh 31.06 in1051.8 mb 0.00 in0.0 mm 0.00 in/hr0.0 mm/hr 0.00 in0.0 mm
03:13 PM 67.1°F19.5°C 47.9°F8.8°C 50% 3.8 mph N6.1 kmh N 7.6 mph12.2 kmh 31.06 in1051.8 mb 0.00 in0.0 mm 0.00 in/hr0.0 mm/hr 0.00 in0.0 mm
03:14 PM 67.1°F19.5°C 48.4°F9.1°C 51% 3.8 mph N6.1 kmh N 7.6 mph12.2 kmh 31.07 in1052.2 mb 0.00 in0.0 mm 0.00 in/hr0.0 mm/hr 0.00 in0.0 mm
03:15 PM 66.9°F19.4°C 48.2°F9.0°C 51% 1.6 mph N2.6 kmh N 7.6 mph12.2 kmh 31.06 in1051.8 mb 0.00 in0.0 mm 0.00 in/hr0.0 mm/hr 0.00 in0.0 mm
03:16 PM 66.9°F19.4°C 48.2°F9.0°C 51% 1.6 mph N2.6 kmh N 6.9 mph11.1 kmh 31.06 in1051.8 mb 0.00 in0.0 mm 0.00 in/hr0.0 mm/hr 0.00 in0.0 mm
03:17 PM 66.9°F19.4°C 48.2°F9.0°C 51% 3.1 mph N5.0 kmh N 6.9 mph11.1 kmh 31.06 in1051.8 mb 0.00 in0.0 mm 0.00 in/hr0.0 mm/hr 0.00 in0.0 mm
03:18 PM 66.9°F19.4°C 48.7°F9.3°C 52% 1.6 mph N2.6 kmh N 6.9 mph11.1 kmh 31.06 in1051.8 mb 0.00 in0.0 mm 0.00 in/hr0.0 mm/hr 0.00 in0.0 mm
03:19 PM 66.9°F19.4°C 48.7°F9.3°C 52% 2.2 mph N3.5 kmh N 6.9 mph11.1 kmh 31.06 in1051.8 mb 0.00 in0.0 mm 0.00 in/hr0.0 mm/hr 0.00 in0.0 mm
03:20 PM 66.9°F19.4°C 48.7°F9.3°C 52% 0.7 mph N1.1 kmh N 6.9 mph11.1 kmh 31.06 in1051.8 mb 0.00 in0.0 mm 0.00 in/hr0.0 mm/hr 0.00 in0.0 mm
03:21 PM 66.9°F19.4°C 48.7°F9.3°C 52% 0.7 mph N1.1 kmh N 6.9 mph11.1 kmh 31.06 in1051.8 mb 0.00 in0.0 mm 0.00 in/hr0.0 mm/hr 0.00 in0.0 mm
03:22 PM 66.9°F19.4°C 48.7°F9.3°C 52% 1.6 mph NNE2.6 kmh NNE 6.9 mph11.1 kmh 31.07 in1052.2 mb 0.00 in0.0 mm 0.00 in/hr0.0 mm/hr 0.00 in0.0 mm
03:23 PM 67.1°F19.5°C 48.9°F9.4°C 52% 1.6 mph NNE2.6 kmh NNE 6.9 mph11.1 kmh 31.06 in1051.8 mb 0.00 in0.0 mm 0.00 in/hr0.0 mm/hr 0.00 in0.0 mm
03:24 PM 66.9°F19.4°C 48.7°F9.3°C 52% 0.7 mph N1.1 kmh N 6.9 mph11.1 kmh 31.07 in1052.2 mb 0.00 in0.0 mm 0.00 in/hr0.0 mm/hr 0.00 in0.0 mm
03:25 PM 67.1°F19.5°C 48.9°F9.4°C 52% 2.2 mph N3.5 kmh N 6.9 mph11.1 kmh 31.06 in1051.8 mb 0.00 in0.0 mm 0.00 in/hr0.0 mm/hr 0.00 in0.0 mm
03:26 PM 67.1°F19.5°C 48.9°F9.4°C 52% 1.6 mph N2.6 kmh N 6.9 mph11.1 kmh 31.06 in1051.8 mb 0.00 in0.0 mm 0.00 in/hr0.0 mm/hr 0.00 in0.0 mm
03:27 PM 67.1°F19.5°C 49.4°F9.7°C 53% 1.6 mph N2.6 kmh N 6.9 mph11.1 kmh 31.06 in1051.8 mb 0.00 in0.0 mm 0.00 in/hr0.0 mm/hr 0.00 in0.0 mm
03:28 PM 66.9°F19.4°C 49.3°F9.6°C 53% 2.2 mph N3.5 kmh N 6.9 mph11.1 kmh 31.06 in1051.8 mb 0.00 in0.0 mm 0.00 in/hr0.0 mm/hr 0.00 in0.0 mm
03:29 PM 66.9°F19.4°C 49.3°F9.6°C 53% 1.6 mph N2.6 kmh N 6.9 mph11.1 kmh 31.06 in1051.8 mb 0.00 in0.0 mm 0.00 in/hr0.0 mm/hr 0.00 in0.0 mm
03:30 PM 67.1°F19.5°C 49.4°F9.7°C 53% 0.7 mph N1.1 kmh N 6.9 mph11.1 kmh 31.06 in1051.8 mb 0.00 in0.0 mm 0.00 in/hr0.0 mm/hr 0.00 in0.0 mm
03:31 PM 67.1°F19.5°C 49.4°F9.7°C 53% Calm Calm 6.9 mph11.1 kmh 31.06 in1051.8 mb 0.00 in0.0 mm 0.00 in/hr0.0 mm/hr 0.00 in0.0 mm
03:32 PM 67.1°F19.5°C 49.4°F9.7°C 53% 3.1 mph N5.0 kmh N 6.9 mph11.1 kmh 31.06 in1051.8 mb 0.00 in0.0 mm 0.00 in/hr0.0 mm/hr 0.00 in0.0 mm
03:33 PM 67.1°F19.5°C 49.4°F9.7°C 53% 1.6 mph N2.6 kmh N 6.9 mph11.1 kmh 31.06 in1051.8 mb 0.00 in0.0 mm 0.00 in/hr0.0 mm/hr 0.00 in0.0 mm
03:34 PM 67.1°F19.5°C 49.4°F9.7°C 53% 1.6 mph N2.6 kmh N 6.9 mph11.1 kmh 31.06 in1051.8 mb 0.00 in0.0 mm 0.00 in/hr0.0 mm/hr 0.00 in0.0 mm
03:35 PM 67.1°F19.5°C 49.9°F9.9°C 54% 2.2 mph N3.5 kmh N 6.9 mph11.1 kmh 31.06 in1051.8 mb 0.00 in0.0 mm 0.00 in/hr0.0 mm/hr 0.00 in0.0 mm
03:36 PM 67.1°F19.5°C 49.9°F9.9°C 54% 1.6 mph N2.6 kmh N 6.9 mph11.1 kmh 31.06 in1051.8 mb 0.00 in0.0 mm 0.00 in/hr0.0 mm/hr 0.00 in0.0 mm
03:37 PM 67.1°F19.5°C 49.9°F9.9°C 54% 1.6 mph N2.6 kmh N 6.0 mph9.7 kmh 31.06 in1051.8 mb 0.00 in0.0 mm 0.00 in/hr0.0 mm/hr 0.00 in0.0 mm
03:38 PM 67.3°F19.6°C 50.1°F10.1°C 54% 1.6 mph N2.6 kmh N 6.0 mph9.7 kmh 31.06 in1051.8 mb 0.00 in0.0 mm 0.00 in/hr0.0 mm/hr 0.00 in0.0 mm
03:39 PM 67.3°F19.6°C 50.1°F10.1°C 54% 2.2 mph N3.5 kmh N 6.0 mph9.7 kmh 31.06 in1051.8 mb 0.00 in0.0 mm 0.00 in/hr0.0 mm/hr 0.00 in0.0 mm
03:40 PM 67.3°F19.6°C 50.1°F10.1°C 54% 1.6 mph N2.6 kmh N 6.0 mph9.7 kmh 31.06 in1051.8 mb 0.00 in0.0 mm 0.00 in/hr0.0 mm/hr 0.00 in0.0 mm
03:41 PM 67.3°F19.6°C 50.1°F10.1°C 54% 0.7 mph N1.1 kmh N 6.0 mph9.7 kmh 31.06 in1051.8 mb 0.00 in0.0 mm 0.00 in/hr0.0 mm/hr 0.00 in0.0 mm
03:42 PM 67.3°F19.6°C 50.1°F10.1°C 54% 1.6 mph N2.6 kmh N 6.0 mph9.7 kmh 31.06 in1051.8 mb 0.00 in0.0 mm 0.00 in/hr0.0 mm/hr 0.00 in0.0 mm
03:43 PM 67.3°F19.6°C 50.1°F10.1°C 54% 3.1 mph N5.0 kmh N 6.0 mph9.7 kmh 31.06 in1051.8 mb 0.00 in0.0 mm 0.00 in/hr0.0 mm/hr 0.00 in0.0 mm
03:44 PM 67.3°F19.6°C 50.1°F10.1°C 54% 1.6 mph N2.6 kmh N 6.0 mph9.7 kmh 31.06 in1051.8 mb 0.00 in0.0 mm 0.00 in/hr0.0 mm/hr 0.00 in0.0 mm
03:45 PM 67.3°F19.6°C 50.1°F10.1°C 54% 1.6 mph N2.6 kmh N 6.0 mph9.7 kmh 31.06 in1051.8 mb 0.00 in0.0 mm 0.00 in/hr0.0 mm/hr 0.00 in0.0 mm
03:46 PM 67.3°F19.6°C 50.1°F10.1°C 54% 1.6 mph N2.6 kmh N 5.4 mph8.7 kmh 31.05 in1051.5 mb 0.00 in0.0 mm 0.00 in/hr0.0 mm/hr 0.00 in0.0 mm
03:47 PM 67.3°F19.6°C 50.1°F10.1°C 54% 3.1 mph N5.0 kmh N 6.0 mph9.7 kmh 31.06 in1051.8 mb 0.00 in0.0 mm 0.00 in/hr0.0 mm/hr 0.00 in0.0 mm
03:48 PM 67.3°F19.6°C 50.6°F10.3°C 55% 1.6 mph N2.6 kmh N 6.0 mph9.7 kmh 31.06 in1051.8 mb 0.00 in0.0 mm 0.00 in/hr0.0 mm/hr 0.00 in0.0 mm
03:49 PM 67.3°F19.6°C 50.6°F10.3°C 55% 0.7 mph N1.1 kmh N 6.0 mph9.7 kmh 31.06 in1051.8 mb 0.00 in0.0 mm 0.00 in/hr0.0 mm/hr 0.00 in0.0 mm
03:50 PM 67.3°F19.6°C 50.6°F10.3°C 55% 0.7 mph N1.1 kmh N 6.0 mph9.7 kmh 31.06 in1051.8 mb 0.00 in0.0 mm 0.00 in/hr0.0 mm/hr 0.00 in0.0 mm
03:51 PM 67.3°F19.6°C 50.6°F10.3°C 55% 1.6 mph N2.6 kmh N 6.0 mph9.7 kmh 31.06 in1051.8 mb 0.00 in0.0 mm 0.00 in/hr0.0 mm/hr 0.00 in0.0 mm
03:52 PM 67.3°F19.6°C 50.6°F10.3°C 55% 1.6 mph N2.6 kmh N 6.0 mph9.7 kmh 31.06 in1051.8 mb 0.00 in0.0 mm 0.00 in/hr0.0 mm/hr 0.00 in0.0 mm
03:53 PM 67.3°F19.6°C 50.6°F10.3°C 55% 2.2 mph NNE3.5 kmh NNE 6.0 mph9.7 kmh 31.06 in1051.8 mb 0.00 in0.0 mm 0.00 in/hr0.0 mm/hr 0.00 in0.0 mm
03:54 PM 67.3°F19.6°C 50.6°F10.3°C 55% 0.7 mph NNE1.1 kmh NNE 6.0 mph9.7 kmh 31.06 in1051.8 mb 0.00 in0.0 mm 0.00 in/hr0.0 mm/hr 0.00 in0.0 mm
03:55 PM 67.3°F19.6°C 50.6°F10.3°C 55% 1.6 mph NNE2.6 kmh NNE 6.0 mph9.7 kmh 31.06 in1051.8 mb 0.00 in0.0 mm 0.00 in/hr0.0 mm/hr 0.00 in0.0 mm
03:56 PM 67.1°F19.5°C 50.4°F10.2°C 55% 2.2 mph NNE3.5 kmh NNE 6.0 mph9.7 kmh 31.06 in1051.8 mb 0.00 in0.0 mm 0.00 in/hr0.0 mm/hr 0.00 in0.0 mm
03:57 PM 67.1°F19.5°C 50.4°F10.2°C 55% 1.6 mph N2.6 kmh N 6.0 mph9.7 kmh 31.06 in1051.8 mb 0.00 in0.0 mm 0.00 in/hr0.0 mm/hr 0.00 in0.0 mm
03:58 PM 67.1°F19.5°C 50.4°F10.2°C 55% Calm Calm 4.5 mph7.2 kmh 31.06 in1051.8 mb 0.00 in0.0 mm 0.00 in/hr0.0 mm/hr 0.00 in0.0 mm
03:59 PM 67.1°F19.5°C 50.4°F10.2°C 55% 1.6 mph N2.6 kmh N 4.5 mph7.2 kmh 31.06 in1051.8 mb 0.00 in0.0 mm 0.00 in/hr0.0 mm/hr 0.00 in0.0 mm
04:00 PM 67.1°F19.5°C 50.4°F10.2°C 55% 1.6 mph N2.6 kmh N 4.5 mph7.2 kmh 31.06 in1051.8 mb 0.00 in0.0 mm 0.00 in/hr0.0 mm/hr 0.00 in0.0 mm
04:01 PM 66.9°F19.4°C 50.2°F10.1°C 55% 1.6 mph N2.6 kmh N 4.5 mph7.2 kmh 31.06 in1051.8 mb 0.00 in0.0 mm 0.00 in/hr0.0 mm/hr 0.00 in0.0 mm
04:02 PM 66.9°F19.4°C 50.2°F10.1°C 55% 1.6 mph N2.6 kmh N 4.5 mph7.2 kmh 31.06 in1051.8 mb 0.00 in0.0 mm 0.00 in/hr0.0 mm/hr 0.00 in0.0 mm
04:03 PM 66.9°F19.4°C 50.2°F10.1°C 55% 1.6 mph N2.6 kmh N 4.5 mph7.2 kmh 31.06 in1051.8 mb 0.00 in0.0 mm 0.00 in/hr0.0 mm/hr 0.00 in0.0 mm
04:04 PM 66.7°F19.3°C 50.1°F10.1°C 55% 2.2 mph N3.5 kmh N 4.5 mph7.2 kmh 31.06 in1051.8 mb 0.00 in0.0 mm 0.00 in/hr0.0 mm/hr 0.00 in0.0 mm
04:05 PM 66.7°F19.3°C 50.1°F10.1°C 55% 1.6 mph N2.6 kmh N 4.5 mph7.2 kmh 31.06 in1051.8 mb 0.00 in0.0 mm 0.00 in/hr0.0 mm/hr 0.00 in0.0 mm
04:06 PM 66.7°F19.3°C 50.1°F10.1°C 55% 1.6 mph N2.6 kmh N 4.5 mph7.2 kmh 31.06 in1051.8 mb 0.00 in0.0 mm 0.00 in/hr0.0 mm/hr 0.00 in0.0 mm
04:07 PM 66.7°F19.3°C 49.6°F9.8°C 54% 1.6 mph N2.6 kmh N 3.8 mph6.1 kmh 31.06 in1051.8 mb 0.00 in0.0 mm 0.00 in/hr0.0 mm/hr 0.00 in0.0 mm
04:08 PM 66.7°F19.3°C 49.6°F9.8°C 54% 0.7 mph N1.1 kmh N 3.8 mph6.1 kmh 31.06 in1051.8 mb 0.00 in0.0 mm 0.00 in/hr0.0 mm/hr 0.00 in0.0 mm
04:09 PM 66.7°F19.3°C 49.6°F9.8°C 54% 1.6 mph N2.6 kmh N 3.8 mph6.1 kmh 31.07 in1052.2 mb 0.00 in0.0 mm 0.00 in/hr0.0 mm/hr 0.00 in0.0 mm
04:10 PM 66.9°F19.4°C 49.8°F9.9°C 54% 1.6 mph N2.6 kmh N 4.5 mph7.2 kmh 31.06 in1051.8 mb 0.00 in0.0 mm 0.00 in/hr0.0 mm/hr 0.00 in0.0 mm
04:11 PM 66.9°F19.4°C 49.8°F9.9°C 54% 0.7 mph N1.1 kmh N 4.5 mph7.2 kmh 31.05 in1051.5 mb 0.00 in0.0 mm 0.00 in/hr0.0 mm/hr 0.00 in0.0 mm
04:12 PM 66.9°F19.4°C 49.8°F9.9°C 54% 0.7 mph N1.1 kmh N 4.5 mph7.2 kmh 31.06 in1051.8 mb 0.00 in0.0 mm 0.00 in/hr0.0 mm/hr 0.00 in0.0 mm
04:13 PM 66.9°F19.4°C 49.8°F9.9°C 54% 3.1 mph N5.0 kmh N 5.4 mph8.7 kmh 31.06 in1051.8 mb 0.00 in0.0 mm 0.00 in/hr0.0 mm/hr 0.00 in0.0 mm
04:14 PM 66.7°F19.3°C 49.6°F9.8°C 54% 0.7 mph N1.1 kmh N 5.4 mph8.7 kmh 31.06 in1051.8 mb 0.00 in0.0 mm 0.00 in/hr0.0 mm/hr 0.00 in0.0 mm
04:15 PM 66.9°F19.4°C 49.8°F9.9°C 54% 2.2 mph N3.5 kmh N 5.4 mph8.7 kmh 31.06 in1051.8 mb 0.00 in0.0 mm 0.00 in/hr0.0 mm/hr 0.00 in0.0 mm
04:16 PM 66.7°F19.3°C 49.6°F9.8°C 54% 2.2 mph N3.5 kmh N 5.4 mph8.7 kmh 31.05 in1051.5 mb 0.00 in0.0 mm 0.00 in/hr0.0 mm/hr 0.00 in0.0 mm
04:17 PM 66.7°F19.3°C 49.6°F9.8°C 54% 1.6 mph N2.6 kmh N 5.4 mph8.7 kmh 31.06 in1051.8 mb 0.00 in0.0 mm 0.00 in/hr0.0 mm/hr 0.00 in0.0 mm
04:18 PM 66.7°F19.3°C 49.6°F9.8°C 54% 0.7 mph N1.1 kmh N 5.4 mph8.7 kmh 31.06 in1051.8 mb 0.00 in0.0 mm 0.00 in/hr0.0 mm/hr 0.00 in0.0 mm
04:19 PM 66.7°F19.3°C 50.1°F10.1°C 55% 0.7 mph N1.1 kmh N 5.4 mph8.7 kmh 31.06 in1051.8 mb 0.00 in0.0 mm 0.00 in/hr0.0 mm/hr 0.00 in0.0 mm
04:20 PM 66.7°F19.3°C 50.1°F10.1°C 55% 1.6 mph N2.6 kmh N 5.4 mph8.7 kmh 31.06 in1051.8 mb 0.00 in0.0 mm 0.00 in/hr0.0 mm/hr 0.00 in0.0 mm
04:21 PM 66.7°F19.3°C 49.6°F9.8°C 54% 2.2 mph N3.5 kmh N 5.4 mph8.7 kmh 31.06 in1051.8 mb 0.00 in0.0 mm 0.00 in/hr0.0 mm/hr 0.00 in0.0 mm
04:22 PM 66.7°F19.3°C 49.6°F9.8°C 54% 1.6 mph N2.6 kmh N 5.4 mph8.7 kmh 31.06 in1051.8 mb 0.00 in0.0 mm 0.00 in/hr0.0 mm/hr 0.00 in0.0 mm
04:23 PM 66.6°F19.2°C 49.4°F9.7°C 54% 2.2 mph N3.5 kmh N 5.4 mph8.7 kmh 31.06 in1051.8 mb 0.00 in0.0 mm 0.00 in/hr0.0 mm/hr 0.00 in0.0 mm
04:24 PM 66.7°F19.3°C 50.1°F10.1°C 55% 0.7 mph N1.1 kmh N 5.4 mph8.7 kmh 31.05 in1051.5 mb 0.00 in0.0 mm 0.00 in/hr0.0 mm/hr 0.00 in0.0 mm
04:25 PM 66.7°F19.3°C 50.1°F10.1°C 55% 0.7 mph N1.1 kmh N 5.4 mph8.7 kmh 31.06 in1051.8 mb 0.00 in0.0 mm 0.00 in/hr0.0 mm/hr 0.00 in0.0 mm
04:26 PM 66.6°F19.2°C 49.9°F9.9°C 55% 2.2 mph N3.5 kmh N 5.4 mph8.7 kmh 31.06 in1051.8 mb 0.00 in0.0 mm 0.00 in/hr0.0 mm/hr 0.00 in0.0 mm
04:27 PM 66.6°F19.2°C 49.9°F9.9°C 55% 2.2 mph N3.5 kmh N 5.4 mph8.7 kmh 31.06 in1051.8 mb 0.00 in0.0 mm 0.00 in/hr0.0 mm/hr 0.00 in0.0 mm
04:28 PM 66.6°F19.2°C 49.9°F9.9°C 55% 2.2 mph N3.5 kmh N 5.4 mph8.7 kmh 31.06 in1051.8 mb 0.00 in0.0 mm 0.00 in/hr0.0 mm/hr 0.00 in0.0 mm
04:29 PM 66.6°F19.2°C 49.9°F9.9°C 55% 0.7 mph N1.1 kmh N 5.4 mph8.7 kmh 31.06 in1051.8 mb 0.00 in0.0 mm 0.00 in/hr0.0 mm/hr 0.00 in0.0 mm
04:30 PM 66.6°F19.2°C 50.4°F10.2°C 56% 0.7 mph NNW1.1 kmh NNW 5.4 mph8.7 kmh 31.06 in1051.8 mb 0.00 in0.0 mm 0.00 in/hr0.0 mm/hr 0.00 in0.0 mm
04:31 PM 66.6°F19.2°C 49.9°F9.9°C 55% 1.6 mph NNW2.6 kmh NNW 5.4 mph8.7 kmh 31.06 in1051.8 mb 0.00 in0.0 mm 0.00 in/hr0.0 mm/hr 0.00 in0.0 mm
04:32 PM 66.7°F19.3°C 50.6°F10.3°C 56% 0.7 mph NNW1.1 kmh NNW 5.4 mph8.7 kmh 31.06 in1051.8 mb 0.00 in0.0 mm 0.00 in/hr0.0 mm/hr 0.00 in0.0 mm
04:33 PM 66.7°F19.3°C 50.6°F10.3°C 56% 0.7 mph NNW1.1 kmh NNW 5.4 mph8.7 kmh 31.06 in1051.8 mb 0.00 in0.0 mm 0.00 in/hr0.0 mm/hr 0.00 in0.0 mm
04:34 PM 66.7°F19.3°C 50.6°F10.3°C 56% Calm Calm 5.4 mph8.7 kmh 31.06 in1051.8 mb 0.00 in0.0 mm 0.00 in/hr0.0 mm/hr 0.00 in0.0 mm
04:35 PM 66.7°F19.3°C 50.6°F10.3°C 56% 0.7 mph NNW1.1 kmh NNW 5.4 mph8.7 kmh 31.06 in1051.8 mb 0.00 in0.0 mm 0.00 in/hr0.0 mm/hr 0.00 in0.0 mm
04:36 PM 66.7°F19.3°C 50.6°F10.3°C 56% 0.7 mph NNW1.1 kmh NNW 5.4 mph8.7 kmh 31.06 in1051.8 mb 0.00 in0.0 mm 0.00 in/hr0.0 mm/hr 0.00 in0.0 mm
04:37 PM 66.7°F19.3°C 50.6°F10.3°C 56% 1.6 mph N2.6 kmh N 5.4 mph8.7 kmh 31.06 in1051.8 mb 0.00 in0.0 mm 0.00 in/hr0.0 mm/hr 0.00 in0.0 mm
04:38 PM 66.9°F19.4°C 51.2°F10.7°C 57% 1.6 mph N2.6 kmh N 5.4 mph8.7 kmh 31.06 in1051.8 mb 0.00 in0.0 mm 0.00 in/hr0.0 mm/hr 0.00 in0.0 mm
04:39 PM 66.9°F19.4°C 51.2°F10.7°C 57% 0.7 mph N1.1 kmh N 4.5 mph7.2 kmh 31.06 in1051.8 mb 0.00 in0.0 mm 0.00 in/hr0.0 mm/hr 0.00 in0.0 mm
04:40 PM 66.9°F19.4°C 51.2°F10.7°C 57% 0.7 mph N1.1 kmh N 4.5 mph7.2 kmh 31.06 in1051.8 mb 0.00 in0.0 mm 0.00 in/hr0.0 mm/hr 0.00 in0.0 mm
04:41 PM 66.9°F19.4°C 51.7°F10.9°C 58% 0.7 mph N1.1 kmh N 4.5 mph7.2 kmh 31.06 in1051.8 mb 0.00 in0.0 mm 0.00 in/hr0.0 mm/hr 0.00 in0.0 mm
04:42 PM 66.9°F19.4°C 51.7°F10.9°C 58% 3.1 mph N5.0 kmh N 6.0 mph9.7 kmh 31.06 in1051.8 mb 0.00 in0.0 mm 0.00 in/hr0.0 mm/hr 0.00 in0.0 mm
04:43 PM 66.9°F19.4°C 51.7°F10.9°C 58% 1.6 mph NNW2.6 kmh NNW 6.0 mph9.7 kmh 31.06 in1051.8 mb 0.00 in0.0 mm 0.00 in/hr0.0 mm/hr 0.00 in0.0 mm
04:44 PM 66.7°F19.3°C 51.5°F10.8°C 58% 1.6 mph NNW2.6 kmh NNW 6.0 mph9.7 kmh 31.06 in1051.8 mb 0.00 in0.0 mm 0.00 in/hr0.0 mm/hr 0.00 in0.0 mm
04:45 PM 66.7°F19.3°C 51.5°F10.8°C 58% 3.1 mph NNW5.0 kmh NNW 6.0 mph9.7 kmh 31.06 in1051.8 mb 0.00 in0.0 mm 0.00 in/hr0.0 mm/hr 0.00 in0.0 mm
04:46 PM 66.6°F19.2°C 51.3°F10.7°C 58% 2.2 mph NNW3.5 kmh NNW 6.0 mph9.7 kmh 31.07 in1052.2 mb 0.00 in0.0 mm 0.00 in/hr0.0 mm/hr 0.00 in0.0 mm
04:47 PM 66.4°F19.1°C 51.6°F10.9°C 59% 1.6 mph NNW2.6 kmh NNW 6.0 mph9.7 kmh 31.07 in1052.2 mb 0.00 in0.0 mm 0.00 in/hr0.0 mm/hr 0.00 in0.0 mm
04:48 PM 66.2°F19.0°C 51.5°F10.8°C 59% 2.2 mph NNW3.5 kmh NNW 6.0 mph9.7 kmh 31.07 in1052.2 mb 0.00 in0.0 mm 0.00 in/hr0.0 mm/hr 0.00 in0.0 mm
04:49 PM 66.2°F19.0°C 51.5°F10.8°C 59% 2.2 mph NNW3.5 kmh NNW 6.0 mph9.7 kmh 31.06 in1051.8 mb 0.00 in0.0 mm 0.00 in/hr0.0 mm/hr 0.00 in0.0 mm
04:50 PM 66.0°F18.9°C 51.3°F10.7°C 59% 1.6 mph N2.6 kmh N 6.0 mph9.7 kmh 31.06 in1051.8 mb 0.00 in0.0 mm 0.00 in/hr0.0 mm/hr 0.00 in0.0 mm
04:51 PM 65.8°F18.8°C 51.1°F10.6°C 59% 2.2 mph NNW3.5 kmh NNW 6.0 mph9.7 kmh 31.07 in1052.2 mb 0.00 in0.0 mm 0.00 in/hr0.0 mm/hr 0.00 in0.0 mm
04:52 PM 65.8°F18.8°C 51.1°F10.6°C 59% 1.6 mph NNW2.6 kmh NNW 6.0 mph9.7 kmh 31.07 in1052.2 mb 0.00 in0.0 mm 0.00 in/hr0.0 mm/hr 0.00 in0.0 mm
04:53 PM 65.8°F18.8°C 51.1°F10.6°C 59% 1.6 mph NNW2.6 kmh NNW 6.0 mph9.7 kmh 31.06 in1051.8 mb 0.00 in0.0 mm 0.00 in/hr0.0 mm/hr 0.00 in0.0 mm
04:54 PM 65.7°F18.7°C 51.0°F10.6°C 59% 0.7 mph N1.1 kmh N 6.0 mph9.7 kmh 31.06 in1051.8 mb 0.00 in0.0 mm 0.00 in/hr0.0 mm/hr 0.00 in0.0 mm
04:55 PM 65.7°F18.7°C 51.0°F10.6°C 59% 0.7 mph N1.1 kmh N 6.0 mph9.7 kmh 31.07 in1052.2 mb 0.00 in0.0 mm 0.00 in/hr0.0 mm/hr 0.00 in0.0 mm
04:56 PM 65.7°F18.7°C 51.4°F10.8°C 60% 0.7 mph N1.1 kmh N 6.0 mph9.7 kmh 31.06 in1051.8 mb 0.00 in0.0 mm 0.00 in/hr0.0 mm/hr 0.00 in0.0 mm
04:57 PM 65.5°F18.6°C 51.2°F10.7°C 60% 3.1 mph N5.0 kmh N 6.0 mph9.7 kmh 31.07 in1052.2 mb 0.00 in0.0 mm 0.00 in/hr0.0 mm/hr 0.00 in0.0 mm
04:58 PM 65.5°F18.6°C 51.2°F10.7°C 60% 2.2 mph N3.5 kmh N 6.0 mph9.7 kmh 31.07 in1052.2 mb 0.00 in0.0 mm 0.00 in/hr0.0 mm/hr 0.00 in0.0 mm
04:59 PM 65.3°F18.5°C 51.1°F10.6°C 60% 1.6 mph NNE2.6 kmh NNE 6.0 mph9.7 kmh 31.07 in1052.2 mb 0.00 in0.0 mm 0.00 in/hr0.0 mm/hr 0.00 in0.0 mm
05:00 PM 65.3°F18.5°C 51.1°F10.6°C 60% 0.7 mph NNE1.1 kmh NNE 6.0 mph9.7 kmh 31.07 in1052.2 mb 0.00 in0.0 mm 0.00 in/hr0.0 mm/hr 0.00 in0.0 mm
05:01 PM 65.3°F18.5°C 51.1°F10.6°C 60% 0.7 mph NE1.1 kmh NE 6.0 mph9.7 kmh 31.07 in1052.2 mb 0.00 in0.0 mm 0.00 in/hr0.0 mm/hr 0.00 in0.0 mm
05:02 PM 65.1°F18.4°C 50.9°F10.5°C 60% 3.1 mph NNE5.0 kmh NNE 6.0 mph9.7 kmh 31.07 in1052.2 mb 0.00 in0.0 mm 0.00 in/hr0.0 mm/hr 0.00 in0.0 mm
05:03 PM 65.1°F18.4°C 50.9°F10.5°C 60% 1.6 mph NNE2.6 kmh NNE 6.0 mph9.7 kmh 31.07 in1052.2 mb 0.00 in0.0 mm 0.00 in/hr0.0 mm/hr 0.00 in0.0 mm
05:04 PM 64.9°F18.3°C 50.7°F10.4°C 60% 0.7 mph N1.1 kmh N 6.0 mph9.7 kmh 31.07 in1052.2 mb 0.00 in0.0 mm 0.00 in/hr0.0 mm/hr 0.00 in0.0 mm
05:05 PM 64.9°F18.3°C 50.7°F10.4°C 60% 0.7 mph N1.1 kmh N 6.0 mph9.7 kmh 31.06 in1051.8 mb 0.00 in0.0 mm 0.00 in/hr0.0 mm/hr 0.00 in0.0 mm
05:06 PM 64.8°F18.2°C 51.0°F10.6°C 61% 1.6 mph N2.6 kmh N 6.0 mph9.7 kmh 31.07 in1052.2 mb 0.00 in0.0 mm 0.00 in/hr0.0 mm/hr 0.00 in0.0 mm
05:07 PM 64.8°F18.2°C 51.0°F10.6°C 61% 1.6 mph N2.6 kmh N 6.0 mph9.7 kmh 31.07 in1052.2 mb 0.00 in0.0 mm 0.00 in/hr0.0 mm/hr 0.00 in0.0 mm
05:08 PM 64.8°F18.2°C 50.6°F10.3°C 60% 3.1 mph N5.0 kmh N 6.0 mph9.7 kmh 31.06 in1051.8 mb 0.00 in0.0 mm 0.00 in/hr0.0 mm/hr 0.00 in0.0 mm
05:09 PM 64.6°F18.1°C 50.8°F10.4°C 61% 0.7 mph N1.1 kmh N 6.0 mph9.7 kmh 31.07 in1052.2 mb 0.00 in0.0 mm 0.00 in/hr0.0 mm/hr 0.00 in0.0 mm
05:10 PM 64.6°F18.1°C 50.8°F10.4°C 61% 1.6 mph N2.6 kmh N 6.0 mph9.7 kmh 31.07 in1052.2 mb 0.00 in0.0 mm 0.00 in/hr0.0 mm/hr 0.00 in0.0 mm
05:11 PM 64.4°F18.0°C 50.7°F10.4°C 61% 1.6 mph N2.6 kmh N 6.0 mph9.7 kmh 31.07 in1052.2 mb 0.00 in0.0 mm 0.00 in/hr0.0 mm/hr 0.00 in0.0 mm
05:12 PM 64.4°F18.0°C 50.7°F10.4°C 61% 1.6 mph N2.6 kmh N 6.0 mph9.7 kmh 31.07 in1052.2 mb 0.00 in0.0 mm 0.00 in/hr0.0 mm/hr 0.00 in0.0 mm
05:13 PM 64.4°F18.0°C 50.7°F10.4°C 61% 1.6 mph N2.6 kmh N 6.0 mph9.7 kmh 31.07 in1052.2 mb 0.00 in0.0 mm 0.00 in/hr0.0 mm/hr 0.00 in0.0 mm
05:14 PM 64.4°F18.0°C 50.7°F10.4°C 61% 1.6 mph N2.6 kmh N 6.0 mph9.7 kmh 31.07 in1052.2 mb 0.00 in0.0 mm 0.00 in/hr0.0 mm/hr 0.00 in0.0 mm
05:15 PM 64.4°F18.0°C 50.7°F10.4°C 61% 0.7 mph N1.1 kmh N 6.0 mph9.7 kmh 31.07 in1052.2 mb 0.00 in0.0 mm 0.00 in/hr0.0 mm/hr 0.00 in0.0 mm
05:16 PM 64.4°F18.0°C 50.7°F10.4°C 61% 1.6 mph N2.6 kmh N 6.0 mph9.7 kmh 31.07 in1052.2 mb 0.00 in0.0 mm 0.00 in/hr0.0 mm/hr 0.00 in0.0 mm
05:17 PM 64.4°F18.0°C 50.7°F10.4°C 61% 0.7 mph N1.1 kmh N 6.0 mph9.7 kmh 31.07 in1052.2 mb 0.00 in0.0 mm 0.00 in/hr0.0 mm/hr 0.00 in0.0 mm
05:18 PM 64.2°F17.9°C 50.5°F10.3°C 61% 1.6 mph N2.6 kmh N 6.0 mph9.7 kmh 31.07 in1052.2 mb 0.00 in0.0 mm 0.00 in/hr0.0 mm/hr 0.00 in0.0 mm
05:19 PM 64.2°F17.9°C 50.5°F10.3°C 61% 0.7 mph NNE1.1 kmh NNE 3.8 mph6.1 kmh 31.07 in1052.2 mb 0.00 in0.0 mm 0.00 in/hr0.0 mm/hr 0.00 in0.0 mm
05:20 PM 64.2°F17.9°C 50.5°F10.3°C 61% 0.7 mph N1.1 kmh N 3.8 mph6.1 kmh 31.07 in1052.2 mb 0.00 in0.0 mm 0.00 in/hr0.0 mm/hr 0.00 in0.0 mm
05:21 PM 64.0°F17.8°C 49.9°F9.9°C 60% 2.2 mph N3.5 kmh N 4.5 mph7.2 kmh 31.07 in1052.2 mb 0.00 in0.0 mm 0.00 in/hr0.0 mm/hr 0.00 in0.0 mm
05:22 PM 64.0°F17.8°C 50.3°F10.2°C 61% 0.7 mph N1.1 kmh N 4.5 mph7.2 kmh 31.07 in1052.2 mb 0.00 in0.0 mm 0.00 in/hr0.0 mm/hr 0.00 in0.0 mm
05:23 PM 63.9°F17.7°C 50.2°F10.1°C 61% 0.7 mph N1.1 kmh N 4.5 mph7.2 kmh 31.07 in1052.2 mb 0.00 in0.0 mm 0.00 in/hr0.0 mm/hr 0.00 in0.0 mm
05:24 PM 63.9°F17.7°C 50.2°F10.1°C 61% 0.7 mph N1.1 kmh N 4.5 mph7.2 kmh 31.07 in1052.2 mb 0.00 in0.0 mm 0.00 in/hr0.0 mm/hr 0.00 in0.0 mm
05:25 PM 63.7°F17.6°C 50.0°F10.0°C 61% 1.6 mph N2.6 kmh N 4.5 mph7.2 kmh 31.07 in1052.2 mb 0.00 in0.0 mm 0.00 in/hr0.0 mm/hr 0.00 in0.0 mm
05:26 PM 63.5°F17.5°C 49.8°F9.9°C 61% 1.6 mph N2.6 kmh N 4.5 mph7.2 kmh 31.07 in1052.2 mb 0.00 in0.0 mm 0.00 in/hr0.0 mm/hr 0.00 in0.0 mm
05:27 PM 63.7°F17.6°C 50.0°F10.0°C 61% 1.6 mph N2.6 kmh N 4.5 mph7.2 kmh 31.07 in1052.2 mb 0.00 in0.0 mm 0.00 in/hr0.0 mm/hr 0.00 in0.0 mm
05:28 PM 63.5°F17.5°C 49.8°F9.9°C 61% 1.6 mph N2.6 kmh N 4.5 mph7.2 kmh 31.07 in1052.2 mb 0.00 in0.0 mm 0.00 in/hr0.0 mm/hr 0.00 in0.0 mm
05:29 PM 63.5°F17.5°C 49.8°F9.9°C 61% 1.6 mph N2.6 kmh N 4.5 mph7.2 kmh 31.07 in1052.2 mb 0.00 in0.0 mm 0.00 in/hr0.0 mm/hr 0.00 in0.0 mm
05:30 PM 63.5°F17.5°C 49.8°F9.9°C 61% 0.7 mph N1.1 kmh N 4.5 mph7.2 kmh 31.07 in1052.2 mb 0.00 in0.0 mm 0.00 in/hr0.0 mm/hr 0.00 in0.0 mm
05:31 PM 63.3°F17.4°C 49.7°F9.8°C 61% Calm Calm 4.5 mph7.2 kmh 31.07 in1052.2 mb 0.00 in0.0 mm 0.00 in/hr0.0 mm/hr 0.00 in0.0 mm
05:32 PM 63.3°F17.4°C 49.7°F9.8°C 61% 1.6 mph N2.6 kmh N 4.5 mph7.2 kmh 31.07 in1052.2 mb 0.00 in0.0 mm 0.00 in/hr0.0 mm/hr 0.00 in0.0 mm
05:33 PM 63.3°F17.4°C 49.7°F9.8°C 61% 1.6 mph N2.6 kmh N 4.5 mph7.2 kmh 31.07 in1052.2 mb 0.00 in0.0 mm 0.00 in/hr0.0 mm/hr 0.00 in0.0 mm
05:34 PM 63.3°F17.4°C 49.7°F9.8°C 61% 1.6 mph NNW2.6 kmh NNW 4.5 mph7.2 kmh 31.07 in1052.2 mb 0.00 in0.0 mm 0.00 in/hr0.0 mm/hr 0.00 in0.0 mm
05:35 PM 63.1°F17.3°C 49.5°F9.7°C 61% 1.6 mph NNW2.6 kmh NNW 4.5 mph7.2 kmh 31.07 in1052.2 mb 0.00 in0.0 mm 0.00 in/hr0.0 mm/hr 0.00 in0.0 mm
05:36 PM 63.1°F17.3°C 49.5°F9.7°C 61% 0.7 mph NNW1.1 kmh NNW 4.5 mph7.2 kmh 31.07 in1052.2 mb 0.00 in0.0 mm 0.00 in/hr0.0 mm/hr 0.00 in0.0 mm
05:37 PM 63.1°F17.3°C 49.5°F9.7°C 61% Calm Calm 4.5 mph7.2 kmh 31.07 in1052.2 mb 0.00 in0.0 mm 0.00 in/hr0.0 mm/hr 0.00 in0.0 mm
05:38 PM 63.0°F17.2°C 49.8°F9.9°C 62% 0.7 mph NW1.1 kmh NW 4.5 mph7.2 kmh 31.07 in1052.2 mb 0.00 in0.0 mm 0.00 in/hr0.0 mm/hr 0.00 in0.0 mm
05:39 PM 63.0°F17.2°C 49.8°F9.9°C 62% 0.7 mph NNW1.1 kmh NNW 3.8 mph6.1 kmh 31.07 in1052.2 mb 0.00 in0.0 mm 0.00 in/hr0.0 mm/hr 0.00 in0.0 mm
05:40 PM 62.8°F17.1°C 49.6°F9.8°C 62% 0.7 mph NNW1.1 kmh NNW 3.8 mph6.1 kmh 31.07 in1052.2 mb 0.00 in0.0 mm 0.00 in/hr0.0 mm/hr 0.00 in0.0 mm
05:41 PM 62.8°F17.1°C 49.6°F9.8°C 62% 0.7 mph NNW1.1 kmh NNW 3.8 mph6.1 kmh 31.07 in1052.2 mb 0.00 in0.0 mm 0.00 in/hr0.0 mm/hr 0.00 in0.0 mm
05:42 PM 62.6°F17.0°C 49.4°F9.7°C 62% 0.7 mph NNW1.1 kmh NNW 3.8 mph6.1 kmh 31.07 in1052.2 mb 0.00 in0.0 mm 0.00 in/hr0.0 mm/hr 0.00 in0.0 mm
07:05 PM 62.6°F17.0°C 49.8°F9.9°C 63% 1.6 mph NNW2.6 kmh NNW 3.8 mph6.1 kmh 31.07 in1052.2 mb 0.00 in0.0 mm 0.00 in/hr0.0 mm/hr 0.00 in0.0 mm
07:06 PM 62.6°F17.0°C 49.8°F9.9°C 63% 1.6 mph NNW2.6 kmh NNW 3.8 mph6.1 kmh 31.07 in1052.2 mb 0.00 in0.0 mm 0.00 in/hr0.0 mm/hr 0.00 in0.0 mm
07:07 PM 56.3°F13.5°C 46.3°F7.9°C 69% 0.7 mph N1.1 kmh N 3.1 mph5.0 kmh 31.10 in1053.2 mb 0.00 in0.0 mm 0.00 in/hr0.0 mm/hr 0.00 in0.0 mm
07:08 PM 56.3°F13.5°C 46.3°F7.9°C 69% 0.7 mph NNE1.1 kmh NNE 3.1 mph5.0 kmh 31.09 in1052.8 mb 0.00 in0.0 mm 0.00 in/hr0.0 mm/hr 0.00 in0.0 mm
07:09 PM 56.1°F13.4°C 46.1°F7.8°C 69% 0.7 mph NNE1.1 kmh NNE 3.1 mph5.0 kmh 31.09 in1052.8 mb 0.00 in0.0 mm 0.00 in/hr0.0 mm/hr 0.00 in0.0 mm
07:10 PM 55.9°F13.3°C 45.9°F7.7°C 69% Calm Calm 3.1 mph5.0 kmh 31.10 in1053.2 mb 0.00 in0.0 mm 0.00 in/hr0.0 mm/hr 0.00 in0.0 mm
07:11 PM 55.9°F13.3°C 45.9°F7.7°C 69% Calm Calm 3.1 mph5.0 kmh 31.10 in1053.2 mb 0.00 in0.0 mm 0.00 in/hr0.0 mm/hr 0.00 in0.0 mm
07:12 PM 55.9°F13.3°C 45.9°F7.7°C 69% 0.7 mph N1.1 kmh N 3.1 mph5.0 kmh 31.10 in1053.2 mb 0.00 in0.0 mm 0.00 in/hr0.0 mm/hr 0.00 in0.0 mm
07:13 PM 55.9°F13.3°C 45.9°F7.7°C 69% Calm Calm 3.1 mph5.0 kmh 31.10 in1053.2 mb 0.00 in0.0 mm 0.00 in/hr0.0 mm/hr 0.00 in0.0 mm
07:14 PM 55.8°F13.2°C 45.8°F7.7°C 69% Calm Calm 3.1 mph5.0 kmh 31.10 in1053.2 mb 0.00 in0.0 mm 0.00 in/hr0.0 mm/hr 0.00 in0.0 mm
07:15 PM 55.8°F13.2°C 45.8°F7.7°C 69% Calm Calm 3.1 mph5.0 kmh 31.10 in1053.2 mb 0.00 in0.0 mm 0.00 in/hr0.0 mm/hr 0.00 in0.0 mm
07:16 PM 55.8°F13.2°C 45.8°F7.7°C 69% Calm Calm 3.1 mph5.0 kmh 31.11 in1053.5 mb 0.00 in0.0 mm 0.00 in/hr0.0 mm/hr 0.00 in0.0 mm
07:17 PM 55.6°F13.1°C 45.6°F7.6°C 69% Calm Calm 3.1 mph5.0 kmh 31.11 in1053.5 mb 0.00 in0.0 mm 0.00 in/hr0.0 mm/hr 0.00 in0.0 mm
07:18 PM 55.6°F13.1°C 45.6°F7.6°C 69% Calm Calm 3.1 mph5.0 kmh 31.10 in1053.2 mb 0.00 in0.0 mm 0.00 in/hr0.0 mm/hr 0.00 in0.0 mm
07:19 PM 55.6°F13.1°C 46.0°F7.8°C 70% 2.2 mph N3.5 kmh N 4.5 mph7.2 kmh 31.11 in1053.5 mb 0.00 in0.0 mm 0.00 in/hr0.0 mm/hr 0.00 in0.0 mm
07:20 PM 55.4°F13.0°C 45.8°F7.7°C 70% 1.6 mph N2.6 kmh N 4.5 mph7.2 kmh 31.10 in1053.2 mb 0.00 in0.0 mm 0.00 in/hr0.0 mm/hr 0.00 in0.0 mm
07:21 PM 55.6°F13.1°C 46.0°F7.8°C 70% 1.6 mph N2.6 kmh N 4.5 mph7.2 kmh 31.10 in1053.2 mb 0.00 in0.0 mm 0.00 in/hr0.0 mm/hr 0.00 in0.0 mm
07:22 PM 55.6°F13.1°C 46.0°F7.8°C 70% Calm Calm 4.5 mph7.2 kmh 31.11 in1053.5 mb 0.00 in0.0 mm 0.00 in/hr0.0 mm/hr 0.00 in0.0 mm
07:23 PM 55.6°F13.1°C 46.0°F7.8°C 70% Calm Calm 4.5 mph7.2 kmh 31.11 in1053.5 mb 0.00 in0.0 mm 0.00 in/hr0.0 mm/hr 0.00 in0.0 mm
07:24 PM 55.6°F13.1°C 46.0°F7.8°C 70% Calm Calm 4.5 mph7.2 kmh 31.11 in1053.5 mb 0.00 in0.0 mm 0.00 in/hr0.0 mm/hr 0.00 in0.0 mm
07:25 PM 55.4°F13.0°C 45.8°F7.7°C 70% 0.7 mph N1.1 kmh N 4.5 mph7.2 kmh 31.10 in1053.2 mb 0.00 in0.0 mm 0.00 in/hr0.0 mm/hr 0.00 in0.0 mm
07:26 PM 55.4°F13.0°C 45.8°F7.7°C 70% 0.7 mph N1.1 kmh N 4.5 mph7.2 kmh 31.11 in1053.5 mb 0.00 in0.0 mm 0.00 in/hr0.0 mm/hr 0.00 in0.0 mm
07:27 PM 55.4°F13.0°C 45.8°F7.7°C 70% Calm Calm 4.5 mph7.2 kmh 31.10 in1053.2 mb 0.00 in0.0 mm 0.00 in/hr0.0 mm/hr 0.00 in0.0 mm
07:28 PM 55.4°F13.0°C 45.8°F7.7°C 70% Calm Calm 4.5 mph7.2 kmh 31.11 in1053.5 mb 0.00 in0.0 mm 0.00 in/hr0.0 mm/hr 0.00 in0.0 mm
07:29 PM 55.4°F13.0°C 45.8°F7.7°C 70% Calm Calm 4.5 mph7.2 kmh 31.10 in1053.2 mb 0.00 in0.0 mm 0.00 in/hr0.0 mm/hr 0.00 in0.0 mm
07:30 PM 55.2°F12.9°C 45.6°F7.6°C 70% 0.7 mph NNW1.1 kmh NNW 3.8 mph6.1 kmh 31.10 in1053.2 mb 0.00 in0.0 mm 0.00 in/hr0.0 mm/hr 0.00 in0.0 mm
07:31 PM 55.2°F12.9°C 45.6°F7.6°C 70% Calm Calm 3.8 mph6.1 kmh 31.10 in1053.2 mb 0.00 in0.0 mm 0.00 in/hr0.0 mm/hr 0.00 in0.0 mm
07:32 PM 55.2°F12.9°C 45.6°F7.6°C 70% Calm Calm 2.2 mph3.5 kmh 31.10 in1053.2 mb 0.00 in0.0 mm 0.00 in/hr0.0 mm/hr 0.00 in0.0 mm
07:33 PM 55.2°F12.9°C 45.6°F7.6°C 70% Calm Calm 2.2 mph3.5 kmh 31.10 in1053.2 mb 0.00 in0.0 mm 0.00 in/hr0.0 mm/hr 0.00 in0.0 mm
07:34 PM 55.0°F12.8°C 45.4°F7.4°C 70% 0.7 mph NNW1.1 kmh NNW 2.2 mph3.5 kmh 31.10 in1053.2 mb 0.00 in0.0 mm 0.00 in/hr0.0 mm/hr 0.00 in0.0 mm
07:35 PM 55.0°F12.8°C 45.8°F7.7°C 71% 0.7 mph N1.1 kmh N 2.2 mph3.5 kmh 31.10 in1053.2 mb 0.00 in0.0 mm 0.00 in/hr0.0 mm/hr 0.00 in0.0 mm
07:36 PM 55.0°F12.8°C 45.8°F7.7°C 71% 0.7 mph N1.1 kmh N 2.2 mph3.5 kmh 31.10 in1053.2 mb 0.00 in0.0 mm 0.00 in/hr0.0 mm/hr 0.00 in0.0 mm
07:37 PM 55.0°F12.8°C 45.8°F7.7°C 71% Calm Calm 2.2 mph3.5 kmh 31.11 in1053.5 mb 0.00 in0.0 mm 0.00 in/hr0.0 mm/hr 0.00 in0.0 mm
07:38 PM 55.0°F12.8°C 45.8°F7.7°C 71% Calm Calm 2.2 mph3.5 kmh 31.11 in1053.5 mb 0.00 in0.0 mm 0.00 in/hr0.0 mm/hr 0.00 in0.0 mm
07:39 PM 55.0°F12.8°C 45.8°F7.7°C 71% 0.7 mph N1.1 kmh N 2.2 mph3.5 kmh 31.11 in1053.5 mb 0.00 in0.0 mm 0.00 in/hr0.0 mm/hr 0.00 in0.0 mm
07:40 PM 54.9°F12.7°C 45.6°F7.6°C 71% Calm Calm 2.2 mph3.5 kmh 31.11 in1053.5 mb 0.00 in0.0 mm 0.00 in/hr0.0 mm/hr 0.00 in0.0 mm
07:41 PM 54.9°F12.7°C 45.6°F7.6°C 71% Calm Calm 2.2 mph3.5 kmh 31.11 in1053.5 mb 0.00 in0.0 mm 0.00 in/hr0.0 mm/hr 0.00 in0.0 mm
07:42 PM 54.9°F12.7°C 45.6°F7.6°C 71% 1.6 mph N2.6 kmh N 3.8 mph6.1 kmh 31.11 in1053.5 mb 0.00 in0.0 mm 0.00 in/hr0.0 mm/hr 0.00 in0.0 mm
07:43 PM 54.9°F12.7°C 45.6°F7.6°C 71% 0.7 mph N1.1 kmh N 3.8 mph6.1 kmh 31.10 in1053.2 mb 0.00 in0.0 mm 0.00 in/hr0.0 mm/hr 0.00 in0.0 mm
07:44 PM 54.9°F12.7°C 45.6°F7.6°C 71% 0.7 mph N1.1 kmh N 3.8 mph6.1 kmh 31.11 in1053.5 mb 0.00 in0.0 mm 0.00 in/hr0.0 mm/hr 0.00 in0.0 mm
07:45 PM 54.9°F12.7°C 45.6°F7.6°C 71% 1.6 mph N2.6 kmh N 3.8 mph6.1 kmh 31.11 in1053.5 mb 0.00 in0.0 mm 0.00 in/hr0.0 mm/hr 0.00 in0.0 mm
07:46 PM 54.9°F12.7°C 45.6°F7.6°C 71% 0.7 mph N1.1 kmh N 3.8 mph6.1 kmh 31.11 in1053.5 mb 0.00 in0.0 mm 0.00 in/hr0.0 mm/hr 0.00 in0.0 mm
07:47 PM 54.9°F12.7°C 45.6°F7.6°C 71% Calm Calm 3.8 mph6.1 kmh 31.11 in1053.5 mb 0.00 in0.0 mm 0.00 in/hr0.0 mm/hr 0.00 in0.0 mm
07:48 PM 54.9°F12.7°C 45.6°F7.6°C 71% Calm Calm 3.8 mph6.1 kmh 31.11 in1053.5 mb 0.00 in0.0 mm 0.00 in/hr0.0 mm/hr 0.00 in0.0 mm
07:49 PM 54.9°F12.7°C 45.6°F7.6°C 71% Calm Calm 3.8 mph6.1 kmh 31.11 in1053.5 mb 0.00 in0.0 mm 0.00 in/hr0.0 mm/hr 0.00 in0.0 mm
07:50 PM 54.9°F12.7°C 45.6°F7.6°C 71% 0.7 mph N1.1 kmh N 3.8 mph6.1 kmh 31.11 in1053.5 mb 0.00 in0.0 mm 0.00 in/hr0.0 mm/hr 0.00 in0.0 mm
07:51 PM 54.9°F12.7°C 45.6°F7.6°C 71% Calm Calm 3.8 mph6.1 kmh 31.11 in1053.5 mb 0.00 in0.0 mm 0.00 in/hr0.0 mm/hr 0.00 in0.0 mm
07:52 PM 54.9°F12.7°C 45.6°F7.6°C 71% Calm Calm 3.8 mph6.1 kmh 31.10 in1053.2 mb 0.00 in0.0 mm 0.00 in/hr0.0 mm/hr 0.00 in0.0 mm
07:53 PM 54.9°F12.7°C 45.6°F7.6°C 71% Calm Calm 3.1 mph5.0 kmh 31.11 in1053.5 mb 0.00 in0.0 mm 0.00 in/hr0.0 mm/hr 0.00 in0.0 mm
07:54 PM 54.7°F12.6°C 45.5°F7.5°C 71% Calm Calm 3.1 mph5.0 kmh 31.11 in1053.5 mb 0.00 in0.0 mm 0.00 in/hr0.0 mm/hr 0.00 in0.0 mm
07:55 PM 54.7°F12.6°C 45.5°F7.5°C 71% Calm Calm 3.1 mph5.0 kmh 31.11 in1053.5 mb 0.00 in0.0 mm 0.00 in/hr0.0 mm/hr 0.00 in0.0 mm
07:56 PM 54.7°F12.6°C 45.1°F7.3°C 70% Calm Calm 2.2 mph3.5 kmh 31.11 in1053.5 mb 0.00 in0.0 mm 0.00 in/hr0.0 mm/hr 0.00 in0.0 mm
07:57 PM 54.5°F12.5°C 45.3°F7.4°C 71% Calm Calm 2.2 mph3.5 kmh 31.11 in1053.5 mb 0.00 in0.0 mm 0.00 in/hr0.0 mm/hr 0.00 in0.0 mm
07:58 PM 54.5°F12.5°C 45.7°F7.6°C 72% 0.7 mph N1.1 kmh N 3.1 mph5.0 kmh 31.11 in1053.5 mb 0.00 in0.0 mm 0.00 in/hr0.0 mm/hr 0.00 in0.0 mm
07:59 PM 54.5°F12.5°C 45.3°F7.4°C 71% Calm Calm 3.1 mph5.0 kmh 31.11 in1053.5 mb 0.00 in0.0 mm 0.00 in/hr0.0 mm/hr 0.00 in0.0 mm
08:00 PM 54.5°F12.5°C 45.3°F7.4°C 71% Calm Calm 3.1 mph5.0 kmh 31.11 in1053.5 mb 0.00 in0.0 mm 0.00 in/hr0.0 mm/hr 0.00 in0.0 mm
08:01 PM 54.3°F12.4°C 45.1°F7.3°C 71% Calm Calm 3.1 mph5.0 kmh 31.11 in1053.5 mb 0.00 in0.0 mm 0.00 in/hr0.0 mm/hr 0.00 in0.0 mm
08:02 PM 54.3°F12.4°C 45.1°F7.3°C 71% Calm Calm 3.1 mph5.0 kmh 31.11 in1053.5 mb 0.00 in0.0 mm 0.00 in/hr0.0 mm/hr 0.00 in0.0 mm
08:03 PM 54.3°F12.4°C 45.1°F7.3°C 71% Calm Calm 3.1 mph5.0 kmh 31.11 in1053.5 mb 0.00 in0.0 mm 0.00 in/hr0.0 mm/hr 0.00 in0.0 mm
08:04 PM 54.1°F12.3°C 45.0°F7.2°C 71% Calm Calm 3.1 mph5.0 kmh 31.11 in1053.5 mb 0.00 in0.0 mm 0.00 in/hr0.0 mm/hr 0.00 in0.0 mm
08:05 PM 54.1°F12.3°C 45.3°F7.4°C 72% Calm Calm 3.1 mph5.0 kmh 31.11 in1053.5 mb 0.00 in0.0 mm 0.00 in/hr0.0 mm/hr 0.00 in0.0 mm
08:06 PM 54.1°F12.3°C 45.3°F7.4°C 72% 0.7 mph NNE1.1 kmh NNE 3.1 mph5.0 kmh 31.11 in1053.5 mb 0.00 in0.0 mm 0.00 in/hr0.0 mm/hr 0.00 in0.0 mm
08:07 PM 54.1°F12.3°C 45.3°F7.4°C 72% Calm Calm 3.1 mph5.0 kmh 31.11 in1053.5 mb 0.00 in0.0 mm 0.00 in/hr0.0 mm/hr 0.00 in0.0 mm
08:08 PM 54.1°F12.3°C 45.3°F7.4°C 72% Calm Calm 3.1 mph5.0 kmh 31.11 in1053.5 mb 0.00 in0.0 mm 0.00 in/hr0.0 mm/hr 0.00 in0.0 mm
08:09 PM 54.1°F12.3°C 45.3°F7.4°C 72% 0.7 mph NNE1.1 kmh NNE 2.2 mph3.5 kmh 31.11 in1053.5 mb 0.00 in0.0 mm 0.00 in/hr0.0 mm/hr 0.00 in0.0 mm
08:10 PM 54.0°F12.2°C 45.1°F7.3°C 72% Calm Calm 2.2 mph3.5 kmh 31.11 in1053.5 mb 0.00 in0.0 mm 0.00 in/hr0.0 mm/hr 0.00 in0.0 mm
08:11 PM 54.0°F12.2°C 45.1°F7.3°C 72% Calm Calm 2.2 mph3.5 kmh 31.11 in1053.5 mb 0.00 in0.0 mm 0.00 in/hr0.0 mm/hr 0.00 in0.0 mm
08:12 PM 54.0°F12.2°C 45.1°F7.3°C 72% Calm Calm 2.2 mph3.5 kmh 31.11 in1053.5 mb 0.00 in0.0 mm 0.00 in/hr0.0 mm/hr 0.00 in0.0 mm
08:13 PM 53.8°F12.1°C 45.0°F7.2°C 72% Calm Calm 2.2 mph3.5 kmh 31.11 in1053.5 mb 0.00 in0.0 mm 0.00 in/hr0.0 mm/hr 0.00 in0.0 mm
08:14 PM 53.8°F12.1°C 45.0°F7.2°C 72% Calm Calm 2.2 mph3.5 kmh 31.11 in1053.5 mb 0.00 in0.0 mm 0.00 in/hr0.0 mm/hr 0.00 in0.0 mm
08:15 PM 53.6°F12.0°C 44.8°F7.1°C 72% Calm Calm 2.2 mph3.5 kmh 31.11 in1053.5 mb 0.00 in0.0 mm 0.00 in/hr0.0 mm/hr 0.00 in0.0 mm
08:16 PM 53.4°F11.9°C 44.6°F7.0°C 72% Calm Calm 2.2 mph3.5 kmh 31.11 in1053.5 mb 0.00 in0.0 mm 0.00 in/hr0.0 mm/hr 0.00 in0.0 mm
08:17 PM 53.4°F11.9°C 44.6°F7.0°C 72% Calm Calm 1.6 mph2.6 kmh 31.11 in1053.5 mb 0.00 in0.0 mm 0.00 in/hr0.0 mm/hr 0.00 in0.0 mm
08:18 PM 53.2°F11.8°C 44.8°F7.1°C 73% 0.7 mph NNE1.1 kmh NNE 1.6 mph2.6 kmh 31.11 in1053.5 mb 0.00 in0.0 mm 0.00 in/hr0.0 mm/hr 0.00 in0.0 mm
08:19 PM 53.2°F11.8°C 45.2°F7.3°C 74% 0.7 mph NE1.1 kmh NE 2.2 mph3.5 kmh 31.11 in1053.5 mb 0.00 in0.0 mm 0.00 in/hr0.0 mm/hr 0.00 in0.0 mm
08:20 PM 53.2°F11.8°C 45.2°F7.3°C 74% 0.7 mph NE1.1 kmh NE 2.2 mph3.5 kmh 31.11 in1053.5 mb 0.00 in0.0 mm 0.00 in/hr0.0 mm/hr 0.00 in0.0 mm
08:21 PM 53.2°F11.8°C 45.2°F7.3°C 74% 0.7 mph NNE1.1 kmh NNE 2.2 mph3.5 kmh 31.11 in1053.5 mb 0.00 in0.0 mm 0.00 in/hr0.0 mm/hr 0.00 in0.0 mm
08:22 PM 53.4°F11.9°C 45.3°F7.4°C 74% 1.6 mph NNE2.6 kmh NNE 2.2 mph3.5 kmh 31.11 in1053.5 mb 0.00 in0.0 mm 0.00 in/hr0.0 mm/hr 0.00 in0.0 mm
08:23 PM 53.4°F11.9°C 45.3°F7.4°C 74% 2.2 mph NNE3.5 kmh NNE 3.1 mph5.0 kmh 31.11 in1053.5 mb 0.00 in0.0 mm 0.00 in/hr0.0 mm/hr 0.00 in0.0 mm
08:24 PM 53.4°F11.9°C 45.3°F7.4°C 74% 1.6 mph N2.6 kmh N 3.1 mph5.0 kmh 31.10 in1053.2 mb 0.00 in0.0 mm 0.00 in/hr0.0 mm/hr 0.00 in0.0 mm
08:25 PM 53.6°F12.0°C 45.5°F7.5°C 74% Calm Calm 3.1 mph5.0 kmh 31.11 in1053.5 mb 0.00 in0.0 mm 0.00 in/hr0.0 mm/hr 0.00 in0.0 mm
08:26 PM 53.6°F12.0°C 45.2°F7.3°C 73% Calm Calm 3.1 mph5.0 kmh 31.11 in1053.5 mb 0.00 in0.0 mm 0.00 in/hr0.0 mm/hr 0.00 in0.0 mm
08:27 PM 53.6°F12.0°C 45.2°F7.3°C 73% Calm Calm 3.1 mph5.0 kmh 31.11 in1053.5 mb 0.00 in0.0 mm 0.00 in/hr0.0 mm/hr 0.00 in0.0 mm
08:28 PM 53.6°F12.0°C 45.2°F7.3°C 73% Calm Calm 3.1 mph5.0 kmh 31.11 in1053.5 mb 0.00 in0.0 mm 0.00 in/hr0.0 mm/hr 0.00 in0.0 mm
08:29 PM 53.6°F12.0°C 45.2°F7.3°C 73% Calm Calm 3.1 mph5.0 kmh 31.11 in1053.5 mb 0.00 in0.0 mm 0.00 in/hr0.0 mm/hr 0.00 in0.0 mm
08:30 PM 53.4°F11.9°C 45.0°F7.2°C 73% Calm Calm 3.1 mph5.0 kmh 31.11 in1053.5 mb 0.00 in0.0 mm 0.00 in/hr0.0 mm/hr 0.00 in0.0 mm
08:31 PM 53.4°F11.9°C 45.0°F7.2°C 73% Calm Calm 3.1 mph5.0 kmh 31.11 in1053.5 mb 0.00 in0.0 mm 0.00 in/hr0.0 mm/hr 0.00 in0.0 mm
08:32 PM 53.2°F11.8°C 44.8°F7.1°C 73% Calm Calm 3.1 mph5.0 kmh 31.11 in1053.5 mb 0.00 in0.0 mm 0.00 in/hr0.0 mm/hr 0.00 in0.0 mm
08:33 PM 53.2°F11.8°C 44.8°F7.1°C 73% Calm Calm 3.1 mph5.0 kmh 31.11 in1053.5 mb 0.00 in0.0 mm 0.00 in/hr0.0 mm/hr 0.00 in0.0 mm
08:34 PM 53.1°F11.7°C 44.6°F7.0°C 73% Calm Calm 3.1 mph5.0 kmh 31.11 in1053.5 mb 0.00 in0.0 mm 0.00 in/hr0.0 mm/hr 0.00 in0.0 mm
08:35 PM 52.9°F11.6°C 44.5°F6.9°C 73% Calm Calm 0.7 mph1.1 kmh 31.11 in1053.5 mb 0.00 in0.0 mm 0.00 in/hr0.0 mm/hr 0.00 in0.0 mm
08:36 PM 52.9°F11.6°C 44.5°F6.9°C 73% 0.7 mph E1.1 kmh E 1.6 mph2.6 kmh 31.11 in1053.5 mb 0.00 in0.0 mm 0.00 in/hr0.0 mm/hr 0.00 in0.0 mm
08:37 PM 52.9°F11.6°C 44.5°F6.9°C 73% Calm Calm 1.6 mph2.6 kmh 31.11 in1053.5 mb 0.00 in0.0 mm 0.00 in/hr0.0 mm/hr 0.00 in0.0 mm
08:38 PM 52.9°F11.6°C 44.8°F7.1°C 74% Calm Calm 1.6 mph2.6 kmh 31.11 in1053.5 mb 0.00 in0.0 mm 0.00 in/hr0.0 mm/hr 0.00 in0.0 mm
08:39 PM 52.9°F11.6°C 44.8°F7.1°C 74% 0.7 mph ESE1.1 kmh ESE 1.6 mph2.6 kmh 31.11 in1053.5 mb 0.00 in0.0 mm 0.00 in/hr0.0 mm/hr 0.00 in0.0 mm
08:40 PM 52.9°F11.6°C 44.8°F7.1°C 74% Calm Calm 1.6 mph2.6 kmh 31.11 in1053.5 mb 0.00 in0.0 mm 0.00 in/hr0.0 mm/hr 0.00 in0.0 mm
08:41 PM 52.9°F11.6°C 44.8°F7.1°C 74% Calm Calm 1.6 mph2.6 kmh 31.11 in1053.5 mb 0.00 in0.0 mm 0.00 in/hr0.0 mm/hr 0.00 in0.0 mm
08:42 PM 53.1°F11.7°C 45.0°F7.2°C 74% Calm Calm 1.6 mph2.6 kmh 31.11 in1053.5 mb 0.00 in0.0 mm 0.00 in/hr0.0 mm/hr 0.00 in0.0 mm
08:43 PM 53.1°F11.7°C 45.0°F7.2°C 74% Calm Calm 1.6 mph2.6 kmh 31.11 in1053.5 mb 0.00 in0.0 mm 0.00 in/hr0.0 mm/hr 0.00 in0.0 mm
08:44 PM 53.2°F11.8°C 44.8°F7.1°C 73% Calm Calm 1.6 mph2.6 kmh 31.11 in1053.5 mb 0.00 in0.0 mm 0.00 in/hr0.0 mm/hr 0.00 in0.0 mm
08:45 PM 53.2°F11.8°C 44.8°F7.1°C 73% Calm Calm 1.6 mph2.6 kmh 31.11 in1053.5 mb 0.00 in0.0 mm 0.00 in/hr0.0 mm/hr 0.00 in0.0 mm
08:46 PM 53.2°F11.8°C 44.8°F7.1°C 73% Calm Calm 1.6 mph2.6 kmh 31.11 in1053.5 mb 0.00 in0.0 mm 0.00 in/hr0.0 mm/hr 0.00 in0.0 mm
08:47 PM 53.2°F11.8°C 44.8°F7.1°C 73% Calm Calm 1.6 mph2.6 kmh 31.11 in1053.5 mb 0.00 in0.0 mm 0.00 in/hr0.0 mm/hr 0.00 in0.0 mm
08:48 PM 53.2°F11.8°C 44.8°F7.1°C 73% Calm Calm 1.6 mph2.6 kmh 31.11 in1053.5 mb 0.00 in0.0 mm 0.00 in/hr0.0 mm/hr 0.00 in0.0 mm
08:49 PM 53.2°F11.8°C 44.8°F7.1°C 73% Calm Calm 1.6 mph2.6 kmh 31.11 in1053.5 mb 0.00 in0.0 mm 0.00 in/hr0.0 mm/hr 0.00 in0.0 mm
08:50 PM 53.2°F11.8°C 44.5°F6.9°C 72% Calm Calm 1.6 mph2.6 kmh 31.10 in1053.2 mb 0.00 in0.0 mm 0.00 in/hr0.0 mm/hr 0.00 in0.0 mm
08:51 PM 53.2°F11.8°C 44.5°F6.9°C 72% Calm Calm 1.6 mph2.6 kmh 31.11 in1053.5 mb 0.00 in0.0 mm 0.00 in/hr0.0 mm/hr 0.00 in0.0 mm
08:52 PM 53.2°F11.8°C 44.5°F6.9°C 72% Calm Calm 1.6 mph2.6 kmh 31.11 in1053.5 mb 0.00 in0.0 mm 0.00 in/hr0.0 mm/hr 0.00 in0.0 mm
08:53 PM 53.2°F11.8°C 44.5°F6.9°C 72% Calm Calm 1.6 mph2.6 kmh 31.11 in1053.5 mb 0.00 in0.0 mm 0.00 in/hr0.0 mm/hr 0.00 in0.0 mm
08:54 PM 53.2°F11.8°C 44.5°F6.9°C 72% Calm Calm 1.6 mph2.6 kmh 31.11 in1053.5 mb 0.00 in0.0 mm 0.00 in/hr0.0 mm/hr 0.00 in0.0 mm
08:55 PM 53.1°F11.7°C 44.3°F6.8°C 72% Calm Calm 1.6 mph2.6 kmh 31.11 in1053.5 mb 0.00 in0.0 mm 0.00 in/hr0.0 mm/hr 0.00 in0.0 mm
08:56 PM 53.1°F11.7°C 44.3°F6.8°C 72% Calm Calm 1.6 mph2.6 kmh 31.11 in1053.5 mb 0.00 in0.0 mm 0.00 in/hr0.0 mm/hr 0.00 in0.0 mm
08:57 PM 53.1°F11.7°C 44.3°F6.8°C 72% Calm Calm 1.6 mph2.6 kmh 31.11 in1053.5 mb 0.00 in0.0 mm 0.00 in/hr0.0 mm/hr 0.00 in0.0 mm
08:58 PM 52.9°F11.6°C 44.1°F6.7°C 72% Calm Calm 1.6 mph2.6 kmh 31.11 in1053.5 mb 0.00 in0.0 mm 0.00 in/hr0.0 mm/hr 0.00 in0.0 mm
08:59 PM 52.9°F11.6°C 44.1°F6.7°C 72% Calm Calm 1.6 mph2.6 kmh 31.11 in1053.5 mb 0.00 in0.0 mm 0.00 in/hr0.0 mm/hr 0.00 in0.0 mm
09:00 PM 52.9°F11.6°C 44.1°F6.7°C 72% Calm Calm 0.7 mph1.1 kmh 31.11 in1053.5 mb 0.00 in0.0 mm 0.00 in/hr0.0 mm/hr 0.00 in0.0 mm
09:01 PM 52.7°F11.5°C 43.9°F6.6°C 72% Calm Calm 0.7 mph1.1 kmh 31.11 in1053.5 mb 0.00 in0.0 mm 0.00 in/hr0.0 mm/hr 0.00 in0.0 mm
09:02 PM 52.7°F11.5°C 43.9°F6.6°C 72% Calm Calm 0.7 mph1.1 kmh 31.11 in1053.5 mb 0.00 in0.0 mm 0.00 in/hr0.0 mm/hr 0.00 in0.0 mm
09:03 PM 52.5°F11.4°C 43.8°F6.6°C 72% Calm Calm 0.7 mph1.1 kmh 31.10 in1053.2 mb 0.00 in0.0 mm 0.00 in/hr0.0 mm/hr 0.00 in0.0 mm
09:04 PM 52.5°F11.4°C 43.8°F6.6°C 72% Calm Calm 0.7 mph1.1 kmh 31.11 in1053.5 mb 0.00 in0.0 mm 0.00 in/hr0.0 mm/hr 0.00 in0.0 mm
09:05 PM 52.3°F11.3°C 44.0°F6.7°C 73% 0.7 mph NE1.1 kmh NE 1.6 mph2.6 kmh 31.11 in1053.5 mb 0.00 in0.0 mm 0.00 in/hr0.0 mm/hr 0.00 in0.0 mm
09:06 PM 52.3°F11.3°C 44.0°F6.7°C 73% Calm Calm 1.6 mph2.6 kmh 31.11 in1053.5 mb 0.00 in0.0 mm 0.00 in/hr0.0 mm/hr 0.00 in0.0 mm
09:07 PM 52.3°F11.3°C 44.0°F6.7°C 73% Calm Calm 1.6 mph2.6 kmh 31.11 in1053.5 mb 0.00 in0.0 mm 0.00 in/hr0.0 mm/hr 0.00 in0.0 mm
09:08 PM 52.5°F11.4°C 44.1°F6.7°C 73% Calm Calm 1.6 mph2.6 kmh 31.11 in1053.5 mb 0.00 in0.0 mm 0.00 in/hr0.0 mm/hr 0.00 in0.0 mm